Time,TemperatureF,DewpointF,PressureIn,WindDirection,WindDirectionDegrees,WindSpeedMPH,WindSpeedGustMPH,Humidity,HourlyPrecipIn,Conditions,Clouds,dailyrainin,SoftwareType,DateUTC
2013-07-17 00:04:00,60.7,56.8,29.67,NW,315,0.0,0.0,87,0.00,,,0.00,WUHU216HW,2013-07-17 07:04:00,
2013-07-17 00:09:00,60.5,56.4,29.67,NW,315,0.0,0.0,86,0.00,,,0.00,WUHU216HW,2013-07-17 07:09:00,
2013-07-17 00:13:00,60.5,56.6,29.67,NW,315,0.0,0.0,87,0.00,,,0.00,WUHU216HW,2013-07-17 07:13:00,
2013-07-17 00:14:00,60.5,56.6,29.67,NW,315,0.0,0.0,87,0.00,,,0.00,WUHU216HW,2013-07-17 07:14:00,
2013-07-17 00:15:00,60.5,56.4,29.68,NW,315,0.0,0.0,86,0.00,,,0.00,WUHU216HW,2013-07-17 07:15:00,
2013-07-17 00:16:00,60.5,56.4,29.67,NW,315,0.0,0.0,86,0.00,,,0.00,WUHU216HW,2013-07-17 07:16:00,
2013-07-17 00:17:00,60.5,56.6,29.67,NW,315,0.0,0.0,87,0.00,,,0.00,WUHU216HW,2013-07-17 07:17:00,
2013-07-17 00:18:00,60.5,56.6,29.67,NW,315,0.0,0.0,87,0.00,,,0.00,WUHU216HW,2013-07-17 07:18:00,
2013-07-17 00:19:00,60.5,56.6,29.67,NW,315,0.0,0.0,87,0.00,,,0.00,WUHU216HW,2013-07-17 07:19:00,
2013-07-17 00:20:00,60.5,56.4,29.67,NW,315,0.0,0.0,86,0.00,,,0.00,WUHU216HW,2013-07-17 07:20:00,
2013-07-17 00:21:00,60.5,56.6,29.67,NNE,23,0.7,0.7,87,0.00,,,0.00,WUHU216HW,2013-07-17 07:21:00,
2013-07-17 00:22:00,60.5,56.6,29.67,NNE,23,0.4,0.7,87,0.00,,,0.00,WUHU216HW,2013-07-17 07:22:00,
2013-07-17 00:23:00,60.3,56.4,29.67,NNE,23,0.0,0.7,87,0.00,,,0.00,WUHU216HW,2013-07-17 07:23:00,
2013-07-17 00:24:00,60.3,56.4,29.67,NNE,23,0.2,0.7,87,0.00,,,0.00,WUHU216HW,2013-07-17 07:24:00,
2013-07-17 00:25:00,60.3,56.4,29.67,NNE,23,0.9,0.9,87,0.00,,,0.00,WUHU216HW,2013-07-17 07:25:00,
2013-07-17 00:26:00,60.3,56.2,29.67,NNE,23,1.1,1.1,86,0.00,,,0.00,WUHU216HW,2013-07-17 07:26:00,
2013-07-17 00:27:00,60.3,56.4,29.67,NNE,23,0.9,1.1,87,0.00,,,0.00,WUHU216HW,2013-07-17 07:27:00,
2013-07-17 00:28:00,60.3,56.2,29.67,NNE,23,0.9,1.1,86,0.00,,,0.00,WUHU216HW,2013-07-17 07:28:00,
2013-07-17 00:29:00,60.1,56.0,29.67,NNE,23,0.4,1.1,86,0.00,,,0.00,WUHU216HW,2013-07-17 07:29:00,
2013-07-17 00:30:00,60.1,56.0,29.67,NNE,23,0.2,1.1,86,0.00,,,0.00,WUHU216HW,2013-07-17 07:30:00,
2013-07-17 00:31:00,60.1,56.3,29.67,NNE,23,0.7,1.1,87,0.00,,,0.00,WUHU216HW,2013-07-17 07:31:00,
2013-07-17 00:32:00,60.1,56.0,29.67,NNE,23,0.9,1.1,86,0.00,,,0.00,WUHU216HW,2013-07-17 07:32:00,
2013-07-17 00:33:00,60.1,56.0,29.67,NNE,23,0.4,1.1,86,0.00,,,0.00,WUHU216HW,2013-07-17 07:33:00,
2013-07-17 00:34:00,60.1,56.0,29.67,NNE,23,0.0,1.1,86,0.00,,,0.00,WUHU216HW,2013-07-17 07:34:00,
2013-07-17 00:35:00,60.1,56.0,29.67,NNE,23,0.0,1.1,86,0.00,,,0.00,WUHU216HW,2013-07-17 07:35:00,
2013-07-17 00:36:00,60.1,56.0,29.67,NNE,23,0.0,1.1,86,0.00,,,0.00,WUHU216HW,2013-07-17 07:36:00,
2013-07-17 00:37:00,60.1,56.0,29.67,NNE,23,0.0,1.1,86,0.00,,,0.00,WUHU216HW,2013-07-17 07:37:00,
2013-07-17 00:38:00,60.1,56.0,29.67,NNE,23,0.0,1.1,86,0.00,,,0.00,WUHU216HW,2013-07-17 07:38:00,
2013-07-17 00:39:00,60.1,56.0,29.67,NNE,23,0.4,1.1,86,0.00,,,0.00,WUHU216HW,2013-07-17 07:39:00,
2013-07-17 00:40:00,60.1,56.0,29.67,NNE,23,0.7,1.1,86,0.00,,,0.00,WUHU216HW,2013-07-17 07:40:00,
2013-07-17 00:41:00,60.1,56.0,29.67,NNE,23,0.0,1.1,86,0.00,,,0.00,WUHU216HW,2013-07-17 07:41:00,
2013-07-17 00:42:00,60.1,56.0,29.67,NNE,23,0.4,0.9,86,0.00,,,0.00,WUHU216HW,2013-07-17 07:42:00,
2013-07-17 00:43:00,59.9,55.8,29.67,NNE,23,0.0,0.9,86,0.00,,,0.00,WUHU216HW,2013-07-17 07:43:00,
2013-07-17 00:44:00,59.9,55.8,29.67,NNE,23,0.0,0.9,86,0.00,,,0.00,WUHU216HW,2013-07-17 07:44:00,
2013-07-17 00:45:00,59.9,55.8,29.67,NNE,23,0.0,0.9,86,0.00,,,0.00,WUHU216HW,2013-07-17 07:45:00,
2013-07-17 00:46:00,59.9,55.8,29.67,NNE,23,0.0,0.9,86,0.00,,,0.00,WUHU216HW,2013-07-17 07:46:00,
2013-07-17 00:47:00,59.9,55.8,29.67,NNE,23,0.0,0.9,86,0.00,,,0.00,WUHU216HW,2013-07-17 07:47:00,
2013-07-17 00:48:00,59.9,55.8,29.67,NNE,23,0.0,0.9,86,0.00,,,0.00,WUHU216HW,2013-07-17 07:48:00,
2013-07-17 00:49:00,59.9,55.8,29.67,NNE,23,0.0,0.7,86,0.00,,,0.00,WUHU216HW,2013-07-17 07:49:00,
2013-07-17 00:50:00,59.9,55.8,29.67,NNE,23,0.0,0.4,86,0.00,,,0.00,WUHU216HW,2013-07-17 07:50:00,
2013-07-17 00:51:00,59.9,55.8,29.66,NNE,23,0.0,0.4,86,0.00,,,0.00,WUHU216HW,2013-07-17 07:51:00,
2013-07-17 00:52:00,59.9,55.8,29.66,NNE,23,0.0,0.4,86,0.00,,,0.00,WUHU216HW,2013-07-17 07:52:00,
2013-07-17 00:53:00,59.9,55.8,29.66,NNE,23,0.0,0.0,86,0.00,,,0.00,WUHU216HW,2013-07-17 07:53:00,
2013-07-17 00:54:00,59.8,55.6,29.66,NNE,23,0.0,0.0,86,0.00,,,0.00,WUHU216HW,2013-07-17 07:54:00,
2013-07-17 00:55:00,59.8,55.6,29.66,NNE,23,0.0,0.0,86,0.00,,,0.00,WUHU216HW,2013-07-17 07:55:00,
2013-07-17 00:56:00,59.8,55.6,29.66,NNE,23,0.0,0.0,86,0.00,,,0.00,WUHU216HW,2013-07-17 07:56:00,
2013-07-17 00:57:00,59.8,55.6,29.66,NNE,23,0.0,0.0,86,0.00,,,0.00,WUHU216HW,2013-07-17 07:57:00,
2013-07-17 00:58:00,59.8,55.6,29.66,NNE,23,0.0,0.0,86,0.00,,,0.00,WUHU216HW,2013-07-17 07:58:00,
2013-07-17 00:59:00,59.8,55.6,29.66,NNE,23,0.0,0.0,86,0.00,,,0.00,WUHU216HW,2013-07-17 07:59:00,
2013-07-17 01:00:00,59.8,55.6,29.66,NNE,23,0.0,0.0,86,0.00,,,0.00,WUHU216HW,2013-07-17 08:00:00,
2013-07-17 01:01:00,59.8,55.6,29.66,NNE,23,0.0,0.0,86,0.00,,,0.00,WUHU216HW,2013-07-17 08:01:00,
2013-07-17 01:02:00,59.8,55.6,29.66,NNE,23,0.0,0.0,86,0.00,,,0.00,WUHU216HW,2013-07-17 08:02:00,
2013-07-17 01:03:00,59.8,55.6,29.66,North,0,0.0,0.0,86,0.00,,,0.00,WUHU216HW,2013-07-17 08:03:00,
2013-07-17 01:04:00,59.8,55.6,29.66,North,0,0.0,0.0,86,0.00,,,0.00,WUHU216HW,2013-07-17 08:04:00,
2013-07-17 01:05:00,59.8,55.6,29.66,North,0,0.0,0.0,86,0.00,,,0.00,WUHU216HW,2013-07-17 08:05:00,
2013-07-17 01:06:00,59.8,55.6,29.66,North,0,0.0,0.0,86,0.00,,,0.00,WUHU216HW,2013-07-17 08:06:00,
2013-07-17 01:07:00,59.8,55.6,29.66,North,0,0.0,0.0,86,0.00,,,0.00,WUHU216HW,2013-07-17 08:07:00,
2013-07-17 01:08:00,59.6,55.5,29.66,North,0,0.0,0.0,86,0.00,,,0.00,WUHU216HW,2013-07-17 08:08:00,
2013-07-17 01:09:00,59.6,55.5,29.66,North,0,0.0,0.0,86,0.00,,,0.00,WUHU216HW,2013-07-17 08:09:00,
2013-07-17 01:10:00,59.6,55.5,29.66,North,0,0.0,0.0,86,0.00,,,0.00,WUHU216HW,2013-07-17 08:10:00,
2013-07-17 01:11:00,59.6,55.5,29.66,North,0,0.0,0.0,86,0.00,,,0.00,WUHU216HW,2013-07-17 08:11:00,
2013-07-17 01:12:00,59.6,55.5,29.66,North,0,0.0,0.0,86,0.00,,,0.00,WUHU216HW,2013-07-17 08:12:00,
2013-07-17 01:13:00,59.6,55.5,29.66,North,0,0.0,0.0,86,0.00,,,0.00,WUHU216HW,2013-07-17 08:13:00,
2013-07-17 01:14:00,59.4,55.3,29.66,NNE,23,0.0,0.0,86,0.00,,,0.00,WUHU216HW,2013-07-17 08:14:00,
2013-07-17 01:15:00,59.4,55.3,29.65,NNE,23,0.0,0.0,86,0.00,,,0.00,WUHU216HW,2013-07-17 08:15:00,
2013-07-17 01:16:00,59.4,55.3,29.65,NNE,23,0.0,0.0,86,0.00,,,0.00,WUHU216HW,2013-07-17 08:16:00,
2013-07-17 01:17:00,59.4,55.3,29.66,NNE,23,0.0,0.0,86,0.00,,,0.00,WUHU216HW,2013-07-17 08:17:00,
2013-07-17 01:18:00,59.4,55.3,29.65,ENE,68,0.0,0.0,86,0.00,,,0.00,WUHU216HW,2013-07-17 08:18:00,
2013-07-17 01:19:00,59.4,55.3,29.65,ENE,68,0.9,0.9,86,0.00,,,0.00,WUHU216HW,2013-07-17 08:19:00,
2013-07-17 01:20:00,59.4,55.3,29.66,East,90,0.9,0.9,86,0.00,,,0.00,WUHU216HW,2013-07-17 08:20:00,
2013-07-17 01:21:00,59.4,55.3,29.65,East,90,0.9,0.9,86,0.00,,,0.00,WUHU216HW,2013-07-17 08:21:00,
2013-07-17 01:22:00,59.4,55.3,29.65,East,90,0.7,0.9,86,0.00,,,0.00,WUHU216HW,2013-07-17 08:22:00,
2013-07-17 01:23:00,59.4,55.3,29.65,East,90,0.4,0.9,86,0.00,,,0.00,WUHU216HW,2013-07-17 08:23:00,
2013-07-17 01:24:00,59.2,55.1,29.65,East,90,0.4,0.9,86,0.00,,,0.00,WUHU216HW,2013-07-17 08:24:00,
2013-07-17 01:25:00,59.2,55.1,29.65,East,90,0.0,0.9,86,0.00,,,0.00,WUHU216HW,2013-07-17 08:25:00,
2013-07-17 01:26:00,59.2,55.1,29.65,East,90,0.0,0.9,86,0.00,,,0.00,WUHU216HW,2013-07-17 08:26:00,
2013-07-17 01:27:00,59.2,55.1,29.65,East,90,0.0,0.9,86,0.00,,,0.00,WUHU216HW,2013-07-17 08:27:00,
2013-07-17 01:28:00,59.2,55.1,29.65,East,90,0.0,0.9,86,0.00,,,0.00,WUHU216HW,2013-07-17 08:28:00,
2013-07-17 01:29:00,59.2,55.1,29.65,East,90,0.4,0.9,86,0.00,,,0.00,WUHU216HW,2013-07-17 08:29:00,
2013-07-17 01:30:00,59.2,55.1,29.65,East,90,0.0,0.9,86,0.00,,,0.00,WUHU216HW,2013-07-17 08:30:00,
2013-07-17 01:31:00,59.2,55.1,29.65,East,90,0.0,0.7,86,0.00,,,0.00,WUHU216HW,2013-07-17 08:31:00,
2013-07-17 01:32:00,59.2,55.1,29.65,East,90,0.0,0.7,86,0.00,,,0.00,WUHU216HW,2013-07-17 08:32:00,
2013-07-17 01:33:00,59.0,54.9,29.65,East,90,0.0,0.4,86,0.00,,,0.00,WUHU216HW,2013-07-17 08:33:00,
2013-07-17 01:34:00,59.0,54.9,29.65,East,90,0.0,0.4,86,0.00,,,0.00,WUHU216HW,2013-07-17 08:34:00,
2013-07-17 01:35:00,59.0,54.9,29.65,East,90,0.0,0.4,86,0.00,,,0.00,WUHU216HW,2013-07-17 08:35:00,
2013-07-17 01:36:00,59.0,54.9,29.65,NE,45,0.4,0.4,86,0.00,,,0.00,WUHU216HW,2013-07-17 08:36:00,
2013-07-17 01:37:00,59.2,55.1,29.65,NE,45,0.4,0.7,86,0.00,,,0.00,WUHU216HW,2013-07-17 08:37:00,
2013-07-17 01:38:00,59.2,55.1,29.66,NE,45,0.4,0.7,86,0.00,,,0.00,WUHU216HW,2013-07-17 08:38:00,
2013-07-17 01:39:00,59.0,54.9,29.65,NE,45,0.7,0.7,86,0.00,,,0.00,WUHU216HW,2013-07-17 08:39:00,
2013-07-17 01:40:00,59.0,54.9,29.66,ENE,68,1.1,1.1,86,0.00,,,0.00,WUHU216HW,2013-07-17 08:40:00,
2013-07-17 01:41:00,59.0,54.9,29.65,ENE,68,1.1,1.1,86,0.00,,,0.00,WUHU216HW,2013-07-17 08:41:00,
2013-07-17 01:42:00,59.0,54.9,29.65,ENE,68,1.1,1.1,86,0.00,,,0.00,WUHU216HW,2013-07-17 08:42:00,
2013-07-17 01:43:00,59.0,54.9,29.65,ENE,68,0.9,1.1,86,0.00,,,0.00,WUHU216HW,2013-07-17 08:43:00,
2013-07-17 01:44:00,59.0,54.9,29.65,ENE,68,0.4,1.1,86,0.00,,,0.00,WUHU216HW,2013-07-17 08:44:00,
2013-07-17 01:45:00,59.0,54.9,29.65,ENE,68,0.7,1.1,86,0.00,,,0.00,WUHU216HW,2013-07-17 08:45:00,
2013-07-17 01:46:00,59.0,54.9,29.65,ENE,68,0.9,1.1,86,0.00,,,0.00,WUHU216HW,2013-07-17 08:46:00,
2013-07-17 01:47:00,59.0,54.9,29.65,ENE,68,0.9,1.1,86,0.00,,,0.00,WUHU216HW,2013-07-17 08:47:00,
2013-07-17 01:48:00,59.0,54.9,29.65,ENE,68,0.7,1.1,86,0.00,,,0.00,WUHU216HW,2013-07-17 08:48:00,
2013-07-17 01:49:00,59.0,54.9,29.66,ENE,68,0.4,1.1,86,0.00,,,0.00,WUHU216HW,2013-07-17 08:49:00,
2013-07-17 01:50:00,59.0,54.9,29.65,ENE,68,0.2,1.1,86,0.00,,,0.00,WUHU216HW,2013-07-17 08:50:00,
2013-07-17 01:51:00,59.0,54.9,29.65,ENE,68,0.4,1.1,86,0.00,,,0.00,WUHU216HW,2013-07-17 08:51:00,
2013-07-17 01:52:00,59.0,54.9,29.65,ENE,68,0.0,1.1,86,0.00,,,0.00,WUHU216HW,2013-07-17 08:52:00,
2013-07-17 01:53:00,59.0,54.9,29.66,ENE,68,0.0,1.1,86,0.00,,,0.00,WUHU216HW,2013-07-17 08:53:00,
2013-07-17 01:54:00,58.9,54.7,29.65,ENE,68,0.4,1.1,86,0.00,,,0.00,WUHU216HW,2013-07-17 08:54:00,
2013-07-17 01:55:00,58.9,54.7,29.65,ENE,68,0.4,1.1,86,0.00,,,0.00,WUHU216HW,2013-07-17 08:55:00,
2013-07-17 01:56:00,58.9,54.7,29.66,ENE,68,0.2,1.1,86,0.00,,,0.00,WUHU216HW,2013-07-17 08:56:00,
2013-07-17 01:57:00,58.9,54.7,29.66,ENE,68,0.4,1.1,86,0.00,,,0.00,WUHU216HW,2013-07-17 08:57:00,
2013-07-17 01:58:00,58.9,54.7,29.66,ENE,68,0.4,0.9,86,0.00,,,0.00,WUHU216HW,2013-07-17 08:58:00,
2013-07-17 01:59:00,58.9,54.7,29.66,ENE,68,0.7,0.9,86,0.00,,,0.00,WUHU216HW,2013-07-17 08:59:00,
2013-07-17 02:00:00,58.9,54.7,29.66,ENE,68,0.7,0.9,86,0.00,,,0.00,WUHU216HW,2013-07-17 09:00:00,
2013-07-17 02:01:00,58.9,54.7,29.66,ENE,68,0.9,1.1,86,0.00,,,0.00,WUHU216HW,2013-07-17 09:01:00,
2013-07-17 02:02:00,58.9,54.7,29.66,ENE,68,1.1,1.1,86,0.00,,,0.00,WUHU216HW,2013-07-17 09:02:00,
2013-07-17 02:03:00,58.9,54.7,29.66,ENE,68,0.7,1.1,86,0.00,,,0.00,WUHU216HW,2013-07-17 09:03:00,
2013-07-17 02:04:00,58.7,54.6,29.66,ENE,68,0.7,1.1,86,0.00,,,0.00,WUHU216HW,2013-07-17 09:04:00,
2013-07-17 02:05:00,58.7,54.6,29.66,ENE,68,0.7,1.1,86,0.00,,,0.00,WUHU216HW,2013-07-17 09:05:00,
2013-07-17 02:06:00,58.7,54.6,29.66,ENE,68,1.1,1.1,86,0.00,,,0.00,WUHU216HW,2013-07-17 09:06:00,
2013-07-17 02:07:00,58.7,54.6,29.66,ENE,68,1.1,1.1,86,0.00,,,0.00,WUHU216HW,2013-07-17 09:07:00,
2013-07-17 02:08:00,58.7,54.6,29.66,ENE,68,1.1,1.1,86,0.00,,,0.00,WUHU216HW,2013-07-17 09:08:00,
2013-07-17 02:09:00,58.7,54.6,29.66,ENE,68,0.9,1.1,86,0.00,,,0.00,WUHU216HW,2013-07-17 09:09:00,
2013-07-17 02:10:00,58.7,54.6,29.66,ENE,68,0.4,1.1,86,0.00,,,0.00,WUHU216HW,2013-07-17 09:10:00,
2013-07-17 02:11:00,58.7,54.6,29.66,ENE,68,0.4,1.1,86,0.00,,,0.00,WUHU216HW,2013-07-17 09:11:00,
2013-07-17 02:12:00,58.7,54.6,29.66,ENE,68,0.4,1.1,86,0.00,,,0.00,WUHU216HW,2013-07-17 09:12:00,
2013-07-17 02:13:00,58.7,54.6,29.66,ENE,68,0.2,1.1,86,0.00,,,0.00,WUHU216HW,2013-07-17 09:13:00,
2013-07-17 02:14:00,58.7,54.6,29.66,ENE,68,0.2,1.1,86,0.00,,,0.00,WUHU216HW,2013-07-17 09:14:00,
2013-07-17 02:15:00,58.7,54.6,29.66,ENE,68,0.0,1.1,86,0.00,,,0.00,WUHU216HW,2013-07-17 09:15:00,
2013-07-17 02:16:00,58.7,54.6,29.66,ENE,68,0.7,1.1,86,0.00,,,0.00,WUHU216HW,2013-07-17 09:16:00,
2013-07-17 02:17:00,58.7,54.6,29.66,ENE,68,0.4,1.1,86,0.00,,,0.00,WUHU216HW,2013-07-17 09:17:00,
2013-07-17 02:18:00,58.7,54.6,29.66,ENE,68,0.9,1.1,86,0.00,,,0.00,WUHU216HW,2013-07-17 09:18:00,
2013-07-17 02:19:00,58.7,54.6,29.66,NE,45,0.9,0.9,86,0.00,,,0.00,WUHU216HW,2013-07-17 09:19:00,
2013-07-17 02:20:00,58.5,54.4,29.66,NE,45,0.9,0.9,86,0.00,,,0.00,WUHU216HW,2013-07-17 09:20:00,
2013-07-17 02:21:00,58.5,54.4,29.66,NE,45,1.1,1.1,86,0.00,,,0.00,WUHU216HW,2013-07-17 09:21:00,
2013-07-17 02:22:00,58.5,54.4,29.66,NE,45,1.1,1.1,86,0.00,,,0.00,WUHU216HW,2013-07-17 09:22:00,
2013-07-17 02:23:00,58.5,54.4,29.66,NE,45,0.4,1.1,86,0.00,,,0.00,WUHU216HW,2013-07-17 09:23:00,
2013-07-17 02:24:00,58.5,54.4,29.66,NE,45,0.9,1.1,86,0.00,,,0.00,WUHU216HW,2013-07-17 09:24:00,
2013-07-17 02:25:00,58.5,54.4,29.66,NE,45,0.9,1.1,86,0.00,,,0.00,WUHU216HW,2013-07-17 09:25:00,
2013-07-17 02:26:00,58.5,54.4,29.66,NE,45,0.2,1.1,86,0.00,,,0.00,WUHU216HW,2013-07-17 09:26:00,
2013-07-17 02:27:00,58.5,54.4,29.66,NE,45,0.2,1.1,86,0.00,,,0.00,WUHU216HW,2013-07-17 09:27:00,
2013-07-17 02:28:00,58.5,54.4,29.66,NE,45,0.4,1.1,86,0.00,,,0.00,WUHU216HW,2013-07-17 09:28:00,
2013-07-17 02:29:00,58.5,54.4,29.66,ENE,68,0.9,1.1,86,0.00,,,0.00,WUHU216HW,2013-07-17 09:29:00,
2013-07-17 02:30:00,58.5,54.4,29.66,ENE,68,0.7,1.1,86,0.00,,,0.00,WUHU216HW,2013-07-17 09:30:00,
2013-07-17 02:31:00,58.5,54.4,29.66,ENE,68,0.7,1.1,86,0.00,,,0.00,WUHU216HW,2013-07-17 09:31:00,
2013-07-17 02:32:00,58.5,54.4,29.66,ENE,68,0.7,1.1,86,0.00,,,0.00,WUHU216HW,2013-07-17 09:32:00,
2013-07-17 02:33:00,58.3,54.2,29.66,ENE,68,1.1,1.1,86,0.00,,,0.00,WUHU216HW,2013-07-17 09:33:00,
2013-07-17 02:34:00,58.3,54.2,29.66,East,90,1.1,1.1,86,0.00,,,0.00,WUHU216HW,2013-07-17 09:34:00,
2013-07-17 02:35:00,58.3,54.2,29.66,ENE,68,0.9,1.1,86,0.00,,,0.00,WUHU216HW,2013-07-17 09:35:00,
2013-07-17 02:36:00,58.3,54.2,29.66,ENE,68,1.1,1.1,86,0.00,,,0.00,WUHU216HW,2013-07-17 09:36:00,
2013-07-17 02:37:00,58.3,54.2,29.66,ENE,68,0.7,1.1,86,0.00,,,0.00,WUHU216HW,2013-07-17 09:37:00,
2013-07-17 02:38:00,58.3,54.2,29.66,ENE,68,0.9,1.1,86,0.00,,,0.00,WUHU216HW,2013-07-17 09:38:00,
2013-07-17 02:39:00,58.3,54.2,29.66,ENE,68,0.9,1.1,86,0.00,,,0.00,WUHU216HW,2013-07-17 09:39:00,
2013-07-17 02:40:00,58.1,54.0,29.66,NE,45,1.1,1.1,86,0.00,,,0.00,WUHU216HW,2013-07-17 09:40:00,
2013-07-17 02:41:00,58.1,54.0,29.66,ENE,68,1.1,1.1,86,0.00,,,0.00,WUHU216HW,2013-07-17 09:41:00,
2013-07-17 02:42:00,58.1,54.0,29.66,ENE,68,0.9,1.1,86,0.00,,,0.00,WUHU216HW,2013-07-17 09:42:00,
2013-07-17 02:43:00,58.1,54.0,29.66,ENE,68,0.9,1.3,86,0.00,,,0.00,WUHU216HW,2013-07-17 09:43:00,
2013-07-17 02:44:00,58.1,54.0,29.66,ENE,68,0.7,1.3,86,0.00,,,0.00,WUHU216HW,2013-07-17 09:44:00,
2013-07-17 02:45:00,58.1,54.0,29.66,ENE,68,0.7,1.3,86,0.00,,,0.00,WUHU216HW,2013-07-17 09:45:00,
2013-07-17 02:46:00,58.1,54.0,29.66,ENE,68,0.7,1.3,86,0.00,,,0.00,WUHU216HW,2013-07-17 09:46:00,
2013-07-17 02:47:00,58.0,53.8,29.66,ENE,68,1.1,1.3,86,0.00,,,0.00,WUHU216HW,2013-07-17 09:47:00,
2013-07-17 02:48:00,58.1,54.0,29.66,ENE,68,0.4,1.3,86,0.00,,,0.00,WUHU216HW,2013-07-17 09:48:00,
2013-07-17 02:49:00,58.0,53.8,29.66,ENE,68,0.2,1.3,86,0.00,,,0.00,WUHU216HW,2013-07-17 09:49:00,
2013-07-17 02:50:00,58.1,54.0,29.66,ENE,68,0.0,1.3,86,0.00,,,0.00,WUHU216HW,2013-07-17 09:50:00,
2013-07-17 02:51:00,58.0,53.8,29.66,ENE,68,0.0,1.3,86,0.00,,,0.00,WUHU216HW,2013-07-17 09:51:00,
2013-07-17 02:52:00,58.0,53.8,29.66,ENE,68,0.0,1.3,86,0.00,,,0.00,WUHU216HW,2013-07-17 09:52:00,
2013-07-17 02:53:00,58.0,53.8,29.66,ENE,68,0.0,1.1,86,0.00,,,0.00,WUHU216HW,2013-07-17 09:53:00,
2013-07-17 02:54:00,58.0,53.8,29.66,ENE,68,0.0,1.1,86,0.00,,,0.00,WUHU216HW,2013-07-17 09:54:00,
2013-07-17 02:55:00,58.0,53.8,29.66,ENE,68,0.0,1.1,86,0.00,,,0.00,WUHU216HW,2013-07-17 09:55:00,
2013-07-17 02:56:00,58.0,53.8,29.66,ENE,68,0.4,1.1,86,0.00,,,0.00,WUHU216HW,2013-07-17 09:56:00,
2013-07-17 02:57:00,58.0,53.8,29.66,ENE,68,0.2,1.1,86,0.00,,,0.00,WUHU216HW,2013-07-17 09:57:00,
2013-07-17 02:58:00,58.0,53.8,29.66,ENE,68,0.0,0.4,86,0.00,,,0.00,WUHU216HW,2013-07-17 09:58:00,
2013-07-17 02:59:00,58.0,53.8,29.66,ENE,68,0.0,0.4,86,0.00,,,0.00,WUHU216HW,2013-07-17 09:59:00,
2013-07-17 03:00:00,58.0,53.8,29.66,ENE,68,0.0,0.4,86,0.00,,,0.00,WUHU216HW,2013-07-17 10:00:00,
2013-07-17 03:01:00,58.0,53.8,29.66,ENE,68,0.2,0.4,86,0.00,,,0.00,WUHU216HW,2013-07-17 10:01:00,
2013-07-17 03:02:00,58.0,53.8,29.66,ENE,68,0.0,0.4,86,0.00,,,0.00,WUHU216HW,2013-07-17 10:02:00,
2013-07-17 03:03:00,58.0,53.8,29.66,ENE,68,0.0,0.4,86,0.00,,,0.00,WUHU216HW,2013-07-17 10:03:00,
2013-07-17 03:04:00,58.0,53.8,29.66,ENE,68,0.0,0.4,86,0.00,,,0.00,WUHU216HW,2013-07-17 10:04:00,
2013-07-17 03:05:00,58.0,53.8,29.66,ENE,68,0.0,0.4,86,0.00,,,0.00,WUHU216HW,2013-07-17 10:05:00,
2013-07-17 03:06:00,58.0,53.8,29.66,ENE,68,0.0,0.4,86,0.00,,,0.00,WUHU216HW,2013-07-17 10:06:00,
2013-07-17 03:07:00,58.0,53.8,29.66,ENE,68,0.0,0.2,86,0.00,,,0.00,WUHU216HW,2013-07-17 10:07:00,
2013-07-17 03:08:00,58.0,53.8,29.65,ENE,68,0.0,0.2,86,0.00,,,0.00,WUHU216HW,2013-07-17 10:08:00,
2013-07-17 03:09:00,58.0,53.8,29.66,ENE,68,0.0,0.2,86,0.00,,,0.00,WUHU216HW,2013-07-17 10:09:00,
2013-07-17 03:10:00,58.0,53.8,29.66,ENE,68,0.0,0.2,86,0.00,,,0.00,WUHU216HW,2013-07-17 10:10:00,
2013-07-17 03:11:00,58.0,53.8,29.65,ENE,68,0.0,0.2,86,0.00,,,0.00,WUHU216HW,2013-07-17 10:11:00,
2013-07-17 03:12:00,58.0,53.8,29.66,ENE,68,0.0,0.0,86,0.00,,,0.00,WUHU216HW,2013-07-17 10:12:00,
2013-07-17 03:13:00,57.8,53.7,29.66,ENE,68,0.0,0.0,86,0.00,,,0.00,WUHU216HW,2013-07-17 10:13:00,
2013-07-17 03:14:00,57.8,53.7,29.66,ENE,68,0.0,0.0,86,0.00,,,0.00,WUHU216HW,2013-07-17 10:14:00,
2013-07-17 03:15:00,58.0,53.8,29.66,ENE,68,0.0,0.0,86,0.00,,,0.00,WUHU216HW,2013-07-17 10:15:00,
2013-07-17 03:16:00,57.8,53.7,29.66,ENE,68,0.0,0.0,86,0.00,,,0.00,WUHU216HW,2013-07-17 10:16:00,
2013-07-17 03:17:00,57.8,53.7,29.66,ENE,68,0.0,0.0,86,0.00,,,0.00,WUHU216HW,2013-07-17 10:17:00,
2013-07-17 03:18:00,57.8,53.7,29.66,ENE,68,0.0,0.0,86,0.00,,,0.00,WUHU216HW,2013-07-17 10:18:00,
2013-07-17 03:19:00,57.8,53.7,29.66,ENE,68,0.0,0.0,86,0.00,,,0.00,WUHU216HW,2013-07-17 10:19:00,
2013-07-17 03:20:00,57.8,53.7,29.65,ENE,68,0.0,0.0,86,0.00,,,0.00,WUHU216HW,2013-07-17 10:20:00,
2013-07-17 03:21:00,57.8,53.7,29.66,ENE,68,0.0,0.0,86,0.00,,,0.00,WUHU216HW,2013-07-17 10:21:00,
2013-07-17 03:22:00,57.6,53.5,29.66,ENE,68,0.0,0.0,86,0.00,,,0.00,WUHU216HW,2013-07-17 10:22:00,
2013-07-17 03:23:00,57.8,53.7,29.66,ENE,68,0.0,0.0,86,0.00,,,0.00,WUHU216HW,2013-07-17 10:23:00,
2013-07-17 03:24:00,57.6,53.5,29.66,ENE,68,0.0,0.0,86,0.00,,,0.00,WUHU216HW,2013-07-17 10:24:00,
2013-07-17 03:25:00,57.6,53.5,29.66,ENE,68,0.0,0.0,86,0.00,,,0.00,WUHU216HW,2013-07-17 10:25:00,
2013-07-17 03:26:00,57.6,53.5,29.66,NE,45,0.0,0.0,86,0.00,,,0.00,WUHU216HW,2013-07-17 10:26:00,
2013-07-17 03:27:00,57.6,53.5,29.66,NE,45,0.0,0.0,86,0.00,,,0.00,WUHU216HW,2013-07-17 10:27:00,
2013-07-17 03:28:00,57.6,53.5,29.66,NE,45,0.0,0.0,86,0.00,,,0.00,WUHU216HW,2013-07-17 10:28:00,
2013-07-17 03:29:00,57.6,53.5,29.66,NE,45,0.0,0.0,86,0.00,,,0.00,WUHU216HW,2013-07-17 10:29:00,
2013-07-17 03:30:00,57.6,53.5,29.66,NE,45,0.0,0.0,86,0.00,,,0.00,WUHU216HW,2013-07-17 10:30:00,
2013-07-17 03:31:00,57.6,53.5,29.66,NE,45,0.0,0.0,86,0.00,,,0.00,WUHU216HW,2013-07-17 10:31:00,
2013-07-17 03:32:00,57.6,53.5,29.66,NE,45,0.0,0.0,86,0.00,,,0.00,WUHU216HW,2013-07-17 10:32:00,
2013-07-17 03:33:00,57.6,53.5,29.66,NE,45,0.0,0.0,86,0.00,,,0.00,WUHU216HW,2013-07-17 10:33:00,
2013-07-17 03:34:00,57.6,53.5,29.66,NE,45,0.0,0.0,86,0.00,,,0.00,WUHU216HW,2013-07-17 10:34:00,
2013-07-17 03:35:00,57.4,53.3,29.66,NNE,23,0.0,0.0,86,0.00,,,0.00,WUHU216HW,2013-07-17 10:35:00,
2013-07-17 03:36:00,57.4,53.3,29.66,NNE,23,0.0,0.0,86,0.00,,,0.00,WUHU216HW,2013-07-17 10:36:00,
2013-07-17 03:37:00,57.4,53.3,29.66,North,0,0.0,0.0,86,0.00,,,0.00,WUHU216HW,2013-07-17 10:37:00,
2013-07-17 03:38:00,57.4,53.3,29.66,North,0,0.0,0.0,86,0.00,,,0.00,WUHU216HW,2013-07-17 10:38:00,
2013-07-17 03:39:00,57.4,53.3,29.66,North,0,0.0,0.0,86,0.00,,,0.00,WUHU216HW,2013-07-17 10:39:00,
2013-07-17 03:40:00,57.4,53.3,29.66,North,0,0.0,0.0,86,0.00,,,0.00,WUHU216HW,2013-07-17 10:40:00,
2013-07-17 03:41:00,57.4,52.9,29.66,North,0,0.0,0.0,85,0.00,,,0.00,WUHU216HW,2013-07-17 10:41:00,
2013-07-17 03:42:00,57.4,52.9,29.66,North,0,0.0,0.0,85,0.00,,,0.00,WUHU216HW,2013-07-17 10:42:00,
2013-07-17 03:43:00,57.4,52.9,29.66,North,0,0.0,0.0,85,0.00,,,0.00,WUHU216HW,2013-07-17 10:43:00,
2013-07-17 03:44:00,57.2,52.7,29.66,North,0,0.2,0.2,85,0.00,,,0.00,WUHU216HW,2013-07-17 10:44:00,
2013-07-17 03:45:00,57.2,52.7,29.66,North,0,0.0,0.2,85,0.00,,,0.00,WUHU216HW,2013-07-17 10:45:00,
2013-07-17 03:46:00,57.2,52.7,29.66,North,0,0.2,0.4,85,0.00,,,0.00,WUHU216HW,2013-07-17 10:46:00,
2013-07-17 03:47:00,57.2,52.7,29.66,North,0,0.0,0.4,85,0.00,,,0.00,WUHU216HW,2013-07-17 10:47:00,
2013-07-17 03:48:00,57.2,52.7,29.66,North,0,0.0,0.4,85,0.00,,,0.00,WUHU216HW,2013-07-17 10:48:00,
2013-07-17 03:49:00,57.2,52.7,29.66,North,0,0.4,0.4,85,0.00,,,0.00,WUHU216HW,2013-07-17 10:49:00,
2013-07-17 03:50:00,57.2,52.7,29.66,North,0,0.2,0.4,85,0.00,,,0.00,WUHU216HW,2013-07-17 10:50:00,
2013-07-17 03:51:00,57.2,52.7,29.66,North,0,0.4,0.4,85,0.00,,,0.00,WUHU216HW,2013-07-17 10:51:00,
2013-07-17 03:52:00,57.2,52.7,29.66,North,0,1.1,1.1,85,0.00,,,0.00,WUHU216HW,2013-07-17 10:52:00,
2013-07-17 03:53:00,57.2,52.7,29.66,North,0,0.9,1.1,85,0.00,,,0.00,WUHU216HW,2013-07-17 10:53:00,
2013-07-17 03:54:00,57.2,52.7,29.66,North,0,0.2,1.1,85,0.00,,,0.00,WUHU216HW,2013-07-17 10:54:00,
2013-07-17 03:55:00,57.2,52.7,29.66,North,0,0.0,1.1,85,0.00,,,0.00,WUHU216HW,2013-07-17 10:55:00,
2013-07-17 03:56:00,57.2,52.7,29.66,North,0,0.0,1.1,85,0.00,,,0.00,WUHU216HW,2013-07-17 10:56:00,
2013-07-17 03:57:00,57.2,52.7,29.66,North,0,0.0,1.1,85,0.00,,,0.00,WUHU216HW,2013-07-17 10:57:00,
2013-07-17 03:58:00,57.1,52.6,29.66,North,0,0.0,1.1,85,0.00,,,0.00,WUHU216HW,2013-07-17 10:58:00,
2013-07-17 03:59:00,57.1,52.6,29.66,North,0,0.0,1.1,85,0.00,,,0.00,WUHU216HW,2013-07-17 10:59:00,
2013-07-17 04:00:00,57.2,52.7,29.66,North,0,0.0,1.1,85,0.00,,,0.00,WUHU216HW,2013-07-17 11:00:00,
2013-07-17 04:01:00,57.1,52.6,29.66,North,0,0.4,1.1,85,0.00,,,0.00,WUHU216HW,2013-07-17 11:01:00,
2013-07-17 04:02:00,57.1,52.6,29.66,North,0,0.4,1.1,85,0.00,,,0.00,WUHU216HW,2013-07-17 11:02:00,
2013-07-17 04:03:00,57.1,52.6,29.66,North,0,0.0,0.7,85,0.00,,,0.00,WUHU216HW,2013-07-17 11:03:00,
2013-07-17 04:04:00,57.1,52.6,29.66,North,0,0.0,0.7,85,0.00,,,0.00,WUHU216HW,2013-07-17 11:04:00,
2013-07-17 04:05:00,57.1,52.6,29.66,North,0,0.2,0.7,85,0.00,,,0.00,WUHU216HW,2013-07-17 11:05:00,
2013-07-17 04:06:00,57.1,52.6,29.66,North,0,0.0,0.7,85,0.00,,,0.00,WUHU216HW,2013-07-17 11:06:00,
2013-07-17 04:07:00,57.1,52.6,29.66,North,0,0.0,0.7,85,0.00,,,0.00,WUHU216HW,2013-07-17 11:07:00,
2013-07-17 04:08:00,57.1,52.6,29.66,North,0,0.0,0.7,85,0.00,,,0.00,WUHU216HW,2013-07-17 11:08:00,
2013-07-17 04:09:00,57.1,52.6,29.66,North,0,0.0,0.7,85,0.00,,,0.00,WUHU216HW,2013-07-17 11:09:00,
2013-07-17 04:10:00,57.1,52.6,29.66,North,0,0.0,0.7,85,0.00,,,0.00,WUHU216HW,2013-07-17 11:10:00,
2013-07-17 04:11:00,57.1,52.6,29.66,North,0,0.0,0.4,85,0.00,,,0.00,WUHU216HW,2013-07-17 11:11:00,
2013-07-17 04:12:00,56.9,52.4,29.66,North,0,0.0,0.4,85,0.00,,,0.00,WUHU216HW,2013-07-17 11:12:00,
2013-07-17 04:13:00,57.1,52.6,29.66,North,0,0.0,0.2,85,0.00,,,0.00,WUHU216HW,2013-07-17 11:13:00,
2013-07-17 04:14:00,56.9,52.4,29.66,North,0,0.0,0.2,85,0.00,,,0.00,WUHU216HW,2013-07-17 11:14:00,
2013-07-17 04:15:00,56.9,52.4,29.67,North,0,0.0,0.2,85,0.00,,,0.00,WUHU216HW,2013-07-17 11:15:00,
2013-07-17 04:16:00,56.9,52.4,29.67,North,0,0.0,0.0,85,0.00,,,0.00,WUHU216HW,2013-07-17 11:16:00,
2013-07-17 04:17:00,56.9,52.4,29.67,North,0,0.0,0.0,85,0.00,,,0.00,WUHU216HW,2013-07-17 11:17:00,
2013-07-17 04:18:00,56.9,52.4,29.67,North,0,0.0,0.0,85,0.00,,,0.00,WUHU216HW,2013-07-17 11:18:00,
2013-07-17 04:19:00,56.9,52.4,29.66,North,0,0.0,0.0,85,0.00,,,0.00,WUHU216HW,2013-07-17 11:19:00,
2013-07-17 04:20:00,56.9,52.4,29.67,North,0,0.0,0.0,85,0.00,,,0.00,WUHU216HW,2013-07-17 11:20:00,
2013-07-17 04:21:00,56.9,52.4,29.67,North,0,0.0,0.0,85,0.00,,,0.00,WUHU216HW,2013-07-17 11:21:00,
2013-07-17 04:22:00,56.9,52.4,29.67,North,0,0.0,0.0,85,0.00,,,0.00,WUHU216HW,2013-07-17 11:22:00,
2013-07-17 04:23:00,56.9,52.4,29.67,North,0,0.0,0.0,85,0.00,,,0.00,WUHU216HW,2013-07-17 11:23:00,
2013-07-17 04:24:00,56.9,52.4,29.67,North,0,0.0,0.0,85,0.00,,,0.00,WUHU216HW,2013-07-17 11:24:00,
2013-07-17 04:25:00,56.9,52.4,29.67,North,0,0.0,0.0,85,0.00,,,0.00,WUHU216HW,2013-07-17 11:25:00,
2013-07-17 04:26:00,56.9,52.4,29.67,North,0,0.0,0.0,85,0.00,,,0.00,WUHU216HW,2013-07-17 11:26:00,
2013-07-17 04:27:00,56.9,52.4,29.67,North,0,0.0,0.0,85,0.00,,,0.00,WUHU216HW,2013-07-17 11:27:00,
2013-07-17 04:28:00,56.9,52.4,29.67,North,0,0.0,0.0,85,0.00,,,0.00,WUHU216HW,2013-07-17 11:28:00,
2013-07-17 04:29:00,56.9,52.4,29.67,North,0,0.0,0.0,85,0.00,,,0.00,WUHU216HW,2013-07-17 11:29:00,
2013-07-17 04:30:00,56.9,52.4,29.67,North,0,0.0,0.0,85,0.00,,,0.00,WUHU216HW,2013-07-17 11:30:00,
2013-07-17 04:31:00,56.9,52.4,29.67,North,0,0.0,0.0,85,0.00,,,0.00,WUHU216HW,2013-07-17 11:31:00,
2013-07-17 04:32:00,56.9,52.4,29.67,North,0,0.0,0.0,85,0.00,,,0.00,WUHU216HW,2013-07-17 11:32:00,
2013-07-17 04:33:00,56.9,52.4,29.67,North,0,0.0,0.0,85,0.00,,,0.00,WUHU216HW,2013-07-17 11:33:00,
2013-07-17 04:34:00,56.7,52.2,29.67,North,0,0.0,0.0,85,0.00,,,0.00,WUHU216HW,2013-07-17 11:34:00,
2013-07-17 04:35:00,56.7,52.2,29.67,North,0,0.0,0.0,85,0.00,,,0.00,WUHU216HW,2013-07-17 11:35:00,
2013-07-17 04:36:00,56.7,52.2,29.67,North,0,0.0,0.0,85,0.00,,,0.00,WUHU216HW,2013-07-17 11:36:00,
2013-07-17 04:37:00,56.7,52.2,29.66,North,0,0.4,0.4,85,0.00,,,0.00,WUHU216HW,2013-07-17 11:37:00,
2013-07-17 04:38:00,56.7,52.2,29.67,North,0,0.4,0.4,85,0.00,,,0.00,WUHU216HW,2013-07-17 11:38:00,
2013-07-17 04:39:00,56.5,52.0,29.67,North,0,0.0,0.4,85,0.00,,,0.00,WUHU216HW,2013-07-17 11:39:00,
2013-07-17 04:40:00,56.7,52.2,29.66,North,0,0.2,0.4,85,0.00,,,0.00,WUHU216HW,2013-07-17 11:40:00,
2013-07-17 04:41:00,56.5,52.0,29.67,North,0,0.2,0.4,85,0.00,,,0.00,WUHU216HW,2013-07-17 11:41:00,
2013-07-17 04:42:00,56.5,52.0,29.67,North,0,0.0,0.4,85,0.00,,,0.00,WUHU216HW,2013-07-17 11:42:00,
2013-07-17 04:43:00,56.5,52.0,29.67,North,0,0.0,0.4,85,0.00,,,0.00,WUHU216HW,2013-07-17 11:43:00,
2013-07-17 04:44:00,56.5,52.0,29.67,North,0,0.0,0.4,85,0.00,,,0.00,WUHU216HW,2013-07-17 11:44:00,
2013-07-17 04:45:00,56.5,52.0,29.67,North,0,0.0,0.4,85,0.00,,,0.00,WUHU216HW,2013-07-17 11:45:00,
2013-07-17 04:46:00,56.5,52.0,29.67,North,0,0.0,0.4,85,0.00,,,0.00,WUHU216HW,2013-07-17 11:46:00,
2013-07-17 04:47:00,56.5,52.0,29.67,North,0,0.2,0.4,85,0.00,,,0.00,WUHU216HW,2013-07-17 11:47:00,
2013-07-17 04:48:00,56.5,52.0,29.67,North,0,0.0,0.4,85,0.00,,,0.00,WUHU216HW,2013-07-17 11:48:00,
2013-07-17 04:49:00,56.5,52.0,29.67,North,0,0.0,0.4,85,0.00,,,0.00,WUHU216HW,2013-07-17 11:49:00,
2013-07-17 04:50:00,56.5,52.0,29.67,North,0,0.0,0.4,85,0.00,,,0.00,WUHU216HW,2013-07-17 11:50:00,
2013-07-17 04:51:00,56.5,52.0,29.67,North,0,0.0,0.4,85,0.00,,,0.00,WUHU216HW,2013-07-17 11:51:00,
2013-07-17 04:52:00,56.5,52.0,29.67,North,0,0.0,0.4,85,0.00,,,0.00,WUHU216HW,2013-07-17 11:52:00,
2013-07-17 04:53:00,56.5,52.0,29.67,North,0,0.0,0.4,85,0.00,,,0.00,WUHU216HW,2013-07-17 11:53:00,
2013-07-17 04:54:00,56.5,52.0,29.67,North,0,0.0,0.4,85,0.00,,,0.00,WUHU216HW,2013-07-17 11:54:00,
2013-07-17 04:55:00,56.5,52.0,29.67,North,0,0.4,0.4,85,0.00,,,0.00,WUHU216HW,2013-07-17 11:55:00,
2013-07-17 04:56:00,56.5,52.0,29.67,NNE,23,0.4,0.4,85,0.00,,,0.00,WUHU216HW,2013-07-17 11:56:00,
2013-07-17 04:57:00,56.5,52.4,29.67,NNE,23,0.4,0.7,86,0.00,,,0.00,WUHU216HW,2013-07-17 11:57:00,
2013-07-17 04:58:00,56.5,52.0,29.67,NNE,23,0.2,0.7,85,0.00,,,0.00,WUHU216HW,2013-07-17 11:58:00,
2013-07-17 04:59:00,56.5,52.4,29.67,NNE,23,1.1,1.1,86,0.00,,,0.00,WUHU216HW,2013-07-17 11:59:00,
2013-07-17 05:00:00,56.3,52.2,29.67,NNE,23,0.4,1.1,86,0.00,,,0.00,WUHU216HW,2013-07-17 12:00:00,
2013-07-17 05:01:00,56.3,52.2,29.67,NNE,23,0.7,1.1,86,0.00,,,0.00,WUHU216HW,2013-07-17 12:01:00,
2013-07-17 05:02:00,56.3,52.2,29.67,NNE,23,0.4,1.1,86,0.00,,,0.00,WUHU216HW,2013-07-17 12:02:00,
2013-07-17 05:03:00,56.3,52.2,29.67,NNE,23,0.4,1.1,86,0.00,,,0.00,WUHU216HW,2013-07-17 12:03:00,
2013-07-17 05:04:00,56.3,52.2,29.67,NNE,23,0.4,1.1,86,0.00,,,0.00,WUHU216HW,2013-07-17 12:04:00,
2013-07-17 05:05:00,56.3,52.2,29.67,NNE,23,0.2,1.1,86,0.00,,,0.00,WUHU216HW,2013-07-17 12:05:00,
2013-07-17 05:06:00,56.3,52.2,29.67,NNE,23,0.0,1.1,86,0.00,,,0.00,WUHU216HW,2013-07-17 12:06:00,
2013-07-17 05:07:00,56.3,52.2,29.67,NNE,23,0.0,1.1,86,0.00,,,0.00,WUHU216HW,2013-07-17 12:07:00,
2013-07-17 05:08:00,56.3,52.2,29.68,NNE,23,0.0,1.1,86,0.00,,,0.00,WUHU216HW,2013-07-17 12:08:00,
2013-07-17 05:09:00,56.3,52.2,29.67,NNE,23,0.0,1.1,86,0.00,,,0.00,WUHU216HW,2013-07-17 12:09:00,
2013-07-17 05:10:00,56.3,52.2,29.67,NNE,23,0.0,0.7,86,0.00,,,0.00,WUHU216HW,2013-07-17 12:10:00,
2013-07-17 05:11:00,56.3,52.2,29.67,NNE,23,0.0,0.7,86,0.00,,,0.00,WUHU216HW,2013-07-17 12:11:00,
2013-07-17 05:12:00,56.3,52.2,29.67,NNE,23,0.0,0.4,86,0.00,,,0.00,WUHU216HW,2013-07-17 12:12:00,
2013-07-17 05:13:00,56.3,52.2,29.67,NNE,23,0.0,0.4,86,0.00,,,0.00,WUHU216HW,2013-07-17 12:13:00,
2013-07-17 05:14:00,56.3,52.2,29.67,NE,45,0.4,0.4,86,0.00,,,0.00,WUHU216HW,2013-07-17 12:14:00,
2013-07-17 05:15:00,56.2,52.0,29.67,NE,45,0.4,0.4,86,0.00,,,0.00,WUHU216HW,2013-07-17 12:15:00,
2013-07-17 05:16:00,56.2,52.0,29.67,NE,45,0.0,0.4,86,0.00,,,0.00,WUHU216HW,2013-07-17 12:16:00,
2013-07-17 05:17:00,56.2,52.0,29.67,NE,45,0.0,0.4,86,0.00,,,0.00,WUHU216HW,2013-07-17 12:17:00,
2013-07-17 05:18:00,56.2,52.0,29.67,NE,45,0.0,0.4,86,0.00,,,0.00,WUHU216HW,2013-07-17 12:18:00,
2013-07-17 05:19:00,56.2,52.0,29.67,ENE,68,0.9,0.9,86,0.00,,,0.00,WUHU216HW,2013-07-17 12:19:00,
2013-07-17 05:20:00,56.2,52.0,29.67,ENE,68,0.4,0.9,86,0.00,,,0.00,WUHU216HW,2013-07-17 12:20:00,
2013-07-17 05:21:00,56.2,52.0,29.67,ENE,68,0.0,0.9,86,0.00,,,0.00,WUHU216HW,2013-07-17 12:21:00,
2013-07-17 05:22:00,56.2,52.0,29.67,ENE,68,0.0,0.9,86,0.00,,,0.00,WUHU216HW,2013-07-17 12:22:00,
2013-07-17 05:23:00,56.2,52.0,29.68,ENE,68,0.2,0.9,86,0.00,,,0.00,WUHU216HW,2013-07-17 12:23:00,
2013-07-17 05:24:00,56.2,52.0,29.67,ENE,68,0.2,0.9,86,0.00,,,0.00,WUHU216HW,2013-07-17 12:24:00,
2013-07-17 05:25:00,56.2,52.0,29.67,ENE,68,0.0,0.9,86,0.00,,,0.00,WUHU216HW,2013-07-17 12:25:00,
2013-07-17 05:26:00,56.2,52.0,29.67,ENE,68,0.0,0.9,86,0.00,,,0.00,WUHU216HW,2013-07-17 12:26:00,
2013-07-17 05:27:00,56.2,52.0,29.67,ENE,68,0.0,0.9,86,0.00,,,0.00,WUHU216HW,2013-07-17 12:27:00,
2013-07-17 05:28:00,56.2,52.0,29.67,ENE,68,0.0,0.9,86,0.00,,,0.00,WUHU216HW,2013-07-17 12:28:00,
2013-07-17 05:29:00,56.0,51.9,29.67,ENE,68,0.4,0.9,86,0.00,,,0.00,WUHU216HW,2013-07-17 12:29:00,
2013-07-17 05:30:00,56.2,52.0,29.67,ENE,68,0.4,0.7,86,0.00,,,0.00,WUHU216HW,2013-07-17 12:30:00,
2013-07-17 05:31:00,56.2,52.0,29.67,ENE,68,0.4,0.7,86,0.00,,,0.00,WUHU216HW,2013-07-17 12:31:00,
2013-07-17 05:32:00,56.0,51.9,29.67,ENE,68,0.0,0.7,86,0.00,,,0.00,WUHU216HW,2013-07-17 12:32:00,
2013-07-17 05:33:00,56.2,52.0,29.67,ENE,68,0.0,0.7,86,0.00,,,0.00,WUHU216HW,2013-07-17 12:33:00,
2013-07-17 05:34:00,56.2,52.0,29.67,ENE,68,0.0,0.7,86,0.00,,,0.00,WUHU216HW,2013-07-17 12:34:00,
2013-07-17 05:35:00,56.0,51.9,29.68,ENE,68,0.0,0.7,86,0.00,,,0.00,WUHU216HW,2013-07-17 12:35:00,
2013-07-17 05:36:00,56.0,51.9,29.67,NE,45,0.4,0.7,86,0.00,,,0.00,WUHU216HW,2013-07-17 12:36:00,
2013-07-17 05:37:00,56.0,51.9,29.67,NE,45,0.7,0.7,86,0.00,,,0.00,WUHU216HW,2013-07-17 12:37:00,
2013-07-17 05:38:00,56.0,51.9,29.67,NE,45,0.4,0.7,86,0.00,,,0.00,WUHU216HW,2013-07-17 12:38:00,
2013-07-17 05:39:00,56.0,51.9,29.68,NE,45,0.0,0.7,86,0.00,,,0.00,WUHU216HW,2013-07-17 12:39:00,
2013-07-17 05:40:00,56.0,51.9,29.68,NE,45,0.7,0.7,86,0.00,,,0.00,WUHU216HW,2013-07-17 12:40:00,
2013-07-17 05:41:00,56.0,51.9,29.68,NE,45,0.4,0.7,86,0.00,,,0.00,WUHU216HW,2013-07-17 12:41:00,
2013-07-17 05:42:00,56.0,51.9,29.68,NE,45,0.0,0.7,86,0.00,,,0.00,WUHU216HW,2013-07-17 12:42:00,
2013-07-17 05:43:00,56.0,51.9,29.68,NE,45,0.0,0.7,86,0.00,,,0.00,WUHU216HW,2013-07-17 12:43:00,
2013-07-17 05:44:00,56.0,51.9,29.68,NE,45,0.4,0.7,86,0.00,,,0.00,WUHU216HW,2013-07-17 12:44:00,
2013-07-17 05:45:00,56.0,51.9,29.68,ENE,68,0.4,0.7,86,0.00,,,0.00,WUHU216HW,2013-07-17 12:45:00,
2013-07-17 05:46:00,56.0,51.9,29.68,ENE,68,0.4,0.7,86,0.00,,,0.00,WUHU216HW,2013-07-17 12:46:00,
2013-07-17 05:47:00,55.8,51.7,29.68,ENE,68,0.4,0.7,86,0.00,,,0.00,WUHU216HW,2013-07-17 12:47:00,
2013-07-17 05:48:00,55.8,51.7,29.68,ENE,68,0.0,0.7,86,0.00,,,0.00,WUHU216HW,2013-07-17 12:48:00,
2013-07-17 05:49:00,55.8,51.7,29.68,ENE,68,0.0,0.7,86,0.00,,,0.00,WUHU216HW,2013-07-17 12:49:00,
2013-07-17 05:50:00,55.8,51.7,29.68,ENE,68,0.0,0.7,86,0.00,,,0.00,WUHU216HW,2013-07-17 12:50:00,
2013-07-17 05:51:00,55.8,51.7,29.68,ENE,68,0.0,0.4,86,0.00,,,0.00,WUHU216HW,2013-07-17 12:51:00,
2013-07-17 05:52:00,55.8,51.7,29.68,ENE,68,0.7,0.7,86,0.00,,,0.00,WUHU216HW,2013-07-17 12:52:00,
2013-07-17 05:53:00,55.8,51.7,29.68,ENE,68,0.4,0.7,86,0.00,,,0.00,WUHU216HW,2013-07-17 12:53:00,
2013-07-17 05:54:00,55.8,51.7,29.68,ENE,68,0.0,0.7,86,0.00,,,0.00,WUHU216HW,2013-07-17 12:54:00,
2013-07-17 05:55:00,55.8,51.7,29.68,ENE,68,0.0,0.7,86,0.00,,,0.00,WUHU216HW,2013-07-17 12:55:00,
2013-07-17 05:56:00,55.8,51.7,29.68,ENE,68,0.0,0.7,86,0.00,,,0.00,WUHU216HW,2013-07-17 12:56:00,
2013-07-17 05:57:00,55.8,51.7,29.68,ENE,68,0.0,0.7,86,0.00,,,0.00,WUHU216HW,2013-07-17 12:57:00,
2013-07-17 05:58:00,55.8,51.7,29.68,ENE,68,0.0,0.7,86,0.00,,,0.00,WUHU216HW,2013-07-17 12:58:00,
2013-07-17 05:59:00,55.8,51.7,29.68,ENE,68,0.0,0.7,86,0.00,,,0.00,WUHU216HW,2013-07-17 12:59:00,
2013-07-17 06:00:00,55.8,51.7,29.68,ENE,68,0.0,0.7,86,0.00,,,0.00,WUHU216HW,2013-07-17 13:00:00,
2013-07-17 06:01:00,55.8,51.7,29.68,ENE,68,0.0,0.7,86,0.00,,,0.00,WUHU216HW,2013-07-17 13:01:00,
2013-07-17 06:02:00,55.8,51.7,29.68,ENE,68,0.0,0.7,86,0.00,,,0.00,WUHU216HW,2013-07-17 13:02:00,
2013-07-17 06:03:00,55.8,51.7,29.69,ENE,68,0.0,0.4,86,0.00,,,0.00,WUHU216HW,2013-07-17 13:03:00,
2013-07-17 06:04:00,55.8,51.7,29.69,ENE,68,0.0,0.0,86,0.00,,,0.00,WUHU216HW,2013-07-17 13:04:00,
2013-07-17 06:05:00,55.8,51.7,29.69,ENE,68,0.0,0.0,86,0.00,,,0.00,WUHU216HW,2013-07-17 13:05:00,
2013-07-17 06:06:00,55.8,51.7,29.69,ENE,68,0.0,0.0,86,0.00,,,0.00,WUHU216HW,2013-07-17 13:06:00,
2013-07-17 06:07:00,55.8,51.7,29.69,ENE,68,0.0,0.0,86,0.00,,,0.00,WUHU216HW,2013-07-17 13:07:00,
2013-07-17 06:08:00,55.8,51.7,29.69,ENE,68,0.4,0.4,86,0.00,,,0.00,WUHU216HW,2013-07-17 13:08:00,
2013-07-17 06:09:00,55.8,51.7,29.69,ENE,68,0.0,0.4,86,0.00,,,0.00,WUHU216HW,2013-07-17 13:09:00,
2013-07-17 06:10:00,55.8,51.7,29.69,ENE,68,0.4,0.4,86,0.00,,,0.00,WUHU216HW,2013-07-17 13:10:00,
2013-07-17 06:11:00,55.8,51.7,29.69,ENE,68,0.0,0.4,86,0.00,,,0.00,WUHU216HW,2013-07-17 13:11:00,
2013-07-17 06:12:00,55.8,51.7,29.69,ENE,68,0.0,0.4,86,0.00,,,0.00,WUHU216HW,2013-07-17 13:12:00,
2013-07-17 06:13:00,55.8,51.7,29.69,ENE,68,0.0,0.4,86,0.00,,,0.00,WUHU216HW,2013-07-17 13:13:00,
2013-07-17 06:14:00,55.8,51.7,29.69,ENE,68,0.0,0.4,86,0.00,,,0.00,WUHU216HW,2013-07-17 13:14:00,
2013-07-17 06:15:00,55.8,51.7,29.69,ENE,68,0.0,0.4,86,0.00,,,0.00,WUHU216HW,2013-07-17 13:15:00,
2013-07-17 06:16:00,55.8,51.7,29.69,ENE,68,0.4,0.4,86,0.00,,,0.00,WUHU216HW,2013-07-17 13:16:00,
2013-07-17 06:17:00,55.8,51.7,29.69,ENE,68,0.2,0.4,86,0.00,,,0.00,WUHU216HW,2013-07-17 13:17:00,
2013-07-17 06:18:00,55.8,51.7,29.69,ENE,68,0.0,0.4,86,0.00,,,0.00,WUHU216HW,2013-07-17 13:18:00,
2013-07-17 06:19:00,55.6,51.5,29.69,ENE,68,0.0,0.4,86,0.00,,,0.00,WUHU216HW,2013-07-17 13:19:00,
2013-07-17 06:20:00,55.8,51.7,29.69,ENE,68,0.4,0.4,86,0.00,,,0.00,WUHU216HW,2013-07-17 13:20:00,
2013-07-17 06:21:00,55.8,51.7,29.69,ENE,68,0.4,0.4,86,0.00,,,0.00,WUHU216HW,2013-07-17 13:21:00,
2013-07-17 06:22:00,55.6,51.5,29.69,ENE,68,0.7,0.9,86,0.00,,,0.00,WUHU216HW,2013-07-17 13:22:00,
2013-07-17 06:23:00,55.8,51.7,29.69,ENE,68,0.4,0.9,86,0.00,,,0.00,WUHU216HW,2013-07-17 13:23:00,
2013-07-17 06:24:00,55.8,51.7,29.69,ENE,68,1.1,1.1,86,0.00,,,0.00,WUHU216HW,2013-07-17 13:24:00,
2013-07-17 06:25:00,55.8,51.7,29.69,ENE,68,0.4,1.1,86,0.00,,,0.00,WUHU216HW,2013-07-17 13:25:00,
2013-07-17 06:26:00,55.8,51.7,29.69,ENE,68,0.7,1.1,86,0.00,,,0.00,WUHU216HW,2013-07-17 13:26:00,
2013-07-17 06:27:00,55.8,51.7,29.69,ENE,68,0.9,1.1,86,0.00,,,0.00,WUHU216HW,2013-07-17 13:27:00,
2013-07-17 06:28:00,55.8,51.7,29.69,NE,45,1.1,1.3,86,0.00,,,0.00,WUHU216HW,2013-07-17 13:28:00,
2013-07-17 06:29:00,55.8,51.7,29.69,NE,45,1.3,1.3,86,0.00,,,0.00,WUHU216HW,2013-07-17 13:29:00,
2013-07-17 06:30:00,55.8,51.7,29.69,NE,45,0.9,1.3,86,0.00,,,0.00,WUHU216HW,2013-07-17 13:30:00,
2013-07-17 06:31:00,55.8,51.7,29.69,NE,45,1.1,1.3,86,0.00,,,0.00,WUHU216HW,2013-07-17 13:31:00,
2013-07-17 06:32:00,55.8,51.7,29.70,NE,45,0.4,1.3,86,0.00,,,0.00,WUHU216HW,2013-07-17 13:32:00,
2013-07-17 06:36:00,56.0,51.9,29.70,NE,45,0.9,1.3,86,0.00,,,0.00,WUHU216HW,2013-07-17 13:36:00,
2013-07-17 06:41:00,56.3,52.2,29.70,ENE,68,0.7,1.1,86,0.00,,,0.00,WUHU216HW,2013-07-17 13:41:00,
2013-07-17 06:46:00,56.7,52.6,29.70,East,90,0.9,1.1,86,0.00,,,0.00,WUHU216HW,2013-07-17 13:46:00,
2013-07-17 06:51:00,57.2,53.1,29.70,ENE,68,0.7,1.1,86,0.00,,,0.00,WUHU216HW,2013-07-17 13:51:00,
2013-07-17 06:56:00,57.8,53.9,29.70,East,90,0.4,1.1,87,0.00,,,0.00,WUHU216HW,2013-07-17 13:56:00,
2013-07-17 07:01:00,58.1,54.3,29.70,East,90,0.0,1.1,87,0.00,,,0.00,WUHU216HW,2013-07-17 14:01:00,
2013-07-17 07:06:00,58.5,54.6,29.70,East,90,0.2,0.9,87,0.00,,,0.00,WUHU216HW,2013-07-17 14:06:00,
2013-07-17 07:11:00,58.9,55.0,29.70,ESE,113,1.1,1.1,87,0.00,,,0.00,WUHU216HW,2013-07-17 14:11:00,
2013-07-17 07:16:00,59.4,55.5,29.71,ESE,113,1.1,1.1,87,0.00,,,0.00,WUHU216HW,2013-07-17 14:16:00,
2013-07-17 07:21:00,60.1,56.3,29.71,ESE,113,0.9,1.1,87,0.00,,,0.00,WUHU216HW,2013-07-17 14:21:00,
2013-07-17 07:26:00,60.8,57.0,29.71,ESE,113,0.0,1.1,87,0.00,,,0.00,WUHU216HW,2013-07-17 14:26:00,
2013-07-17 07:31:00,61.2,57.3,29.71,East,90,0.2,1.1,87,0.00,,,0.00,WUHU216HW,2013-07-17 14:31:00,
2013-07-17 07:36:00,61.7,57.9,29.71,ESE,113,1.1,1.8,87,0.00,,,0.00,WUHU216HW,2013-07-17 14:36:00,
2013-07-17 07:41:00,62.3,58.1,29.71,ENE,68,0.4,1.8,86,0.00,,,0.00,WUHU216HW,2013-07-17 14:41:00,
2013-07-17 07:46:00,62.6,58.4,29.71,ENE,68,0.0,1.1,86,0.00,,,0.00,WUHU216HW,2013-07-17 14:46:00,
2013-07-17 07:51:00,63.0,58.4,29.71,NNW,338,0.0,0.9,85,0.00,,,0.00,WUHU216HW,2013-07-17 14:51:00,
2013-07-17 07:56:00,63.2,58.2,29.71,West,270,0.7,1.1,84,0.00,,,0.00,WUHU216HW,2013-07-17 14:56:00,
2013-07-17 08:01:00,63.4,58.1,29.71,WSW,248,1.1,2.5,83,0.00,,,0.00,WUHU216HW,2013-07-17 15:01:00,
2013-07-17 08:06:00,63.4,58.1,29.72,SSW,203,0.9,2.5,83,0.00,,,0.00,WUHU216HW,2013-07-17 15:06:00,
2013-07-17 08:11:00,63.7,58.4,29.72,South,180,1.1,3.1,83,0.00,,,0.00,WUHU216HW,2013-07-17 15:11:00,
2013-07-17 08:16:00,64.1,58.5,29.71,SW,225,1.8,3.1,82,0.00,,,0.00,WUHU216HW,2013-07-17 15:16:00,
2013-07-17 08:21:00,64.3,58.7,29.72,SW,225,1.6,1.8,82,0.00,,,0.00,WUHU216HW,2013-07-17 15:21:00,
2013-07-17 08:26:00,64.6,59.1,29.72,SW,225,0.7,2.0,82,0.00,,,0.00,WUHU216HW,2013-07-17 15:26:00,
2013-07-17 08:31:00,65.0,59.3,29.72,SW,225,1.3,2.5,82,0.00,,,0.00,WUHU216HW,2013-07-17 15:31:00,
2013-07-17 08:36:00,65.2,59.2,29.72,SW,225,0.4,2.5,81,0.00,,,0.00,WUHU216HW,2013-07-17 15:36:00,
2013-07-17 08:41:00,65.3,59.4,29.72,SW,225,2.5,2.5,81,0.00,,,0.00,WUHU216HW,2013-07-17 15:41:00,
2013-07-17 08:46:00,65.5,59.2,29.72,SW,225,1.8,3.6,80,0.00,,,0.00,WUHU216HW,2013-07-17 15:46:00,
2013-07-17 08:51:00,65.7,59.8,29.72,WSW,248,0.4,3.6,81,0.00,,,0.00,WUHU216HW,2013-07-17 15:51:00,
2013-07-17 08:56:00,65.7,59.8,29.72,SSW,203,1.1,2.0,81,0.00,,,0.00,WUHU216HW,2013-07-17 15:56:00,
2013-07-17 09:01:00,65.9,59.6,29.72,West,270,1.1,1.8,80,0.00,,,0.00,WUHU216HW,2013-07-17 16:01:00,
2013-07-17 09:06:00,66.1,60.1,29.72,NNW,338,0.4,2.7,81,0.00,,,0.00,WUHU216HW,2013-07-17 16:06:00,
2013-07-17 09:11:00,66.2,59.9,29.72,WSW,248,1.1,3.1,80,0.00,,,0.00,WUHU216HW,2013-07-17 16:11:00,
2013-07-17 09:16:00,66.2,59.9,29.72,NNE,23,0.4,3.1,80,0.00,,,0.00,WUHU216HW,2013-07-17 16:16:00,
2013-07-17 09:21:00,66.2,59.9,29.71,West,270,2.5,3.4,80,0.00,,,0.00,WUHU216HW,2013-07-17 16:21:00,
2013-07-17 09:26:00,66.1,59.8,29.71,West,270,1.3,3.4,80,0.00,,,0.00,WUHU216HW,2013-07-17 16:26:00,
2013-07-17 09:31:00,65.9,59.6,29.71,WSW,248,3.6,3.6,80,0.00,,,0.00,WUHU216HW,2013-07-17 16:31:00,
2013-07-17 09:36:00,65.9,58.9,29.71,WNW,293,0.9,3.6,78,0.00,,,0.00,WUHU216HW,2013-07-17 16:36:00,
2013-07-17 09:41:00,66.1,58.6,29.71,West,270,2.0,3.6,77,0.00,,,0.00,WUHU216HW,2013-07-17 16:41:00,
2013-07-17 09:46:00,66.4,59.4,29.71,NNW,338,1.8,3.1,78,0.00,,,0.00,WUHU216HW,2013-07-17 16:46:00,
2013-07-17 09:51:00,66.6,58.8,29.71,SW,225,2.5,3.4,76,0.00,,,0.00,WUHU216HW,2013-07-17 16:51:00,
2013-07-17 09:56:00,67.0,59.1,29.71,WSW,248,2.7,3.4,76,0.00,,,0.00,WUHU216HW,2013-07-17 16:56:00,
2013-07-17 10:01:00,67.0,58.8,29.71,SW,225,1.6,3.8,75,0.00,,,0.00,WUHU216HW,2013-07-17 17:01:00,
2013-07-17 10:06:00,67.0,58.8,29.71,NW,315,0.7,3.8,75,0.00,,,0.00,WUHU216HW,2013-07-17 17:06:00,
2013-07-17 10:11:00,67.3,59.1,29.71,WSW,248,3.1,4.0,75,0.00,,,0.00,WUHU216HW,2013-07-17 17:11:00,
2013-07-17 10:16:00,67.3,59.5,29.72,NNW,338,3.1,4.0,76,0.00,,,0.00,WUHU216HW,2013-07-17 17:16:00,
2013-07-17 10:21:00,67.5,59.3,29.72,West,270,2.9,3.8,75,0.00,,,0.00,WUHU216HW,2013-07-17 17:21:00,
2013-07-17 10:26:00,67.5,59.7,29.72,NNW,338,2.0,3.8,76,0.00,,,0.00,WUHU216HW,2013-07-17 17:26:00,
2013-07-17 10:31:00,67.7,60.2,29.71,SW,225,2.2,3.4,77,0.00,,,0.00,WUHU216HW,2013-07-17 17:31:00,
2013-07-17 10:36:00,68.0,60.2,29.71,SSW,203,1.8,3.4,76,0.00,,,0.00,WUHU216HW,2013-07-17 17:36:00,
2013-07-17 10:41:00,68.4,60.6,29.71,WSW,248,1.8,4.3,76,0.00,,,0.00,WUHU216HW,2013-07-17 17:41:00,
2013-07-17 10:46:00,68.4,60.2,29.71,WSW,248,1.6,4.3,75,0.00,,,0.00,WUHU216HW,2013-07-17 17:46:00,
2013-07-17 10:51:00,68.4,60.2,29.71,SW,225,1.3,3.4,75,0.00,,,0.00,WUHU216HW,2013-07-17 17:51:00,
2013-07-17 10:56:00,68.2,60.4,29.71,West,270,1.8,3.4,76,0.00,,,0.00,WUHU216HW,2013-07-17 17:56:00,
2013-07-17 11:01:00,68.2,60.4,29.71,West,270,2.5,4.0,76,0.00,,,0.00,WUHU216HW,2013-07-17 18:01:00,
2013-07-17 11:06:00,68.2,60.4,29.71,SW,225,1.3,4.0,76,0.00,,,0.00,WUHU216HW,2013-07-17 18:06:00,
2013-07-17 11:11:00,68.6,60.8,29.71,West,270,2.2,3.4,76,0.00,,,0.00,WUHU216HW,2013-07-17 18:11:00,
2013-07-17 11:16:00,68.9,60.3,29.71,West,270,2.2,4.7,74,0.00,,,0.00,WUHU216HW,2013-07-17 18:16:00,
2013-07-17 11:21:00,68.8,60.5,29.71,North,0,2.7,4.7,75,0.00,,,0.00,WUHU216HW,2013-07-17 18:21:00,
2013-07-17 11:26:00,68.9,60.7,29.71,NNW,338,1.1,3.8,75,0.00,,,0.00,WUHU216HW,2013-07-17 18:26:00,
2013-07-17 11:31:00,68.9,60.3,29.71,WSW,248,3.4,3.8,74,0.00,,,0.00,WUHU216HW,2013-07-17 18:31:00,
2013-07-17 11:36:00,68.9,60.7,29.71,NW,315,1.8,4.7,75,0.00,,,0.00,WUHU216HW,2013-07-17 18:36:00,
2013-07-17 11:41:00,68.8,60.1,29.71,WSW,248,1.8,4.7,74,0.00,,,0.00,WUHU216HW,2013-07-17 18:41:00,
2013-07-17 11:46:00,68.8,60.5,29.71,West,270,1.6,4.5,75,0.00,,,0.00,WUHU216HW,2013-07-17 18:46:00,
2013-07-17 11:51:00,68.9,60.3,29.72,NW,315,1.6,4.0,74,0.00,,,0.00,WUHU216HW,2013-07-17 18:51:00,
2013-07-17 11:56:00,69.3,61.0,29.71,WNW,293,2.5,4.0,75,0.00,,,0.00,WUHU216HW,2013-07-17 18:56:00,
2013-07-17 12:01:00,69.5,60.8,29.72,WNW,293,5.6,5.6,74,0.00,,,0.00,WUHU216HW,2013-07-17 19:01:00,
2013-07-17 12:06:00,69.5,61.1,29.71,WSW,248,4.0,5.6,75,0.00,,,0.00,WUHU216HW,2013-07-17 19:06:00,
2013-07-17 12:11:00,69.3,61.4,29.72,WSW,248,1.8,5.6,76,0.00,,,0.00,WUHU216HW,2013-07-17 19:11:00,
2013-07-17 12:16:00,69.5,61.9,29.72,West,270,1.1,5.4,77,0.00,,,0.00,WUHU216HW,2013-07-17 19:16:00,
2013-07-17 12:21:00,69.8,61.5,29.72,West,270,3.1,5.4,75,0.00,,,0.00,WUHU216HW,2013-07-17 19:21:00,
2013-07-17 12:26:00,69.8,61.8,29.72,WNW,293,1.1,3.8,76,0.00,,,0.00,WUHU216HW,2013-07-17 19:26:00,
2013-07-17 12:31:00,70.0,61.7,29.72,West,270,1.8,3.1,75,0.00,,,0.00,WUHU216HW,2013-07-17 19:31:00,
2013-07-17 12:36:00,70.2,61.8,29.72,NW,315,2.5,4.3,75,0.00,,,0.00,WUHU216HW,2013-07-17 19:36:00,
2013-07-17 12:41:00,70.2,61.5,29.72,WSW,248,4.3,4.3,74,0.00,,,0.00,WUHU216HW,2013-07-17 19:41:00,
2013-07-17 12:46:00,70.2,61.8,29.72,WSW,248,1.3,4.3,75,0.00,,,0.00,WUHU216HW,2013-07-17 19:46:00,
2013-07-17 12:51:00,70.2,61.5,29.72,WNW,293,2.0,4.7,74,0.00,,,0.00,WUHU216HW,2013-07-17 19:51:00,
2013-07-17 12:56:00,70.2,61.8,29.71,North,0,2.9,4.7,75,0.00,,,0.00,WUHU216HW,2013-07-17 19:56:00,
2013-07-17 13:01:00,70.0,61.7,29.72,SW,225,2.5,4.3,75,0.00,,,0.00,WUHU216HW,2013-07-17 20:01:00,
2013-07-17 13:06:00,69.8,61.1,29.71,West,270,1.8,4.3,74,0.00,,,0.00,WUHU216HW,2013-07-17 20:06:00,
2013-07-17 13:11:00,69.5,61.1,29.71,WSW,248,1.6,4.3,75,0.00,,,0.00,WUHU216HW,2013-07-17 20:11:00,
2013-07-17 13:16:00,69.7,61.3,29.71,South,180,0.7,4.0,75,0.00,,,0.00,WUHU216HW,2013-07-17 20:16:00,
2013-07-17 13:21:00,69.8,60.8,29.71,West,270,1.3,4.0,73,0.00,,,0.00,WUHU216HW,2013-07-17 20:21:00,
2013-07-17 13:26:00,69.8,60.3,29.71,WNW,293,2.7,4.0,72,0.00,,,0.00,WUHU216HW,2013-07-17 20:26:00,
2013-07-17 13:31:00,69.1,60.0,29.71,West,270,2.2,4.7,73,0.00,,,0.00,WUHU216HW,2013-07-17 20:31:00,
2013-07-17 13:36:00,69.1,60.0,29.71,West,270,1.8,4.7,73,0.00,,,0.00,WUHU216HW,2013-07-17 20:36:00,
2013-07-17 13:41:00,69.1,60.0,29.71,WNW,293,3.1,3.8,73,0.00,,,0.00,WUHU216HW,2013-07-17 20:41:00,
2013-07-17 13:46:00,69.1,60.5,29.71,West,270,1.6,4.0,74,0.00,,,0.00,WUHU216HW,2013-07-17 20:46:00,
2013-07-17 13:51:00,69.3,59.5,29.71,West,270,2.7,4.0,71,0.00,,,0.00,WUHU216HW,2013-07-17 20:51:00,
2013-07-17 13:56:00,68.8,59.8,29.71,SSW,203,2.5,4.0,73,0.00,,,0.00,WUHU216HW,2013-07-17 20:56:00,
2013-07-17 14:01:00,68.9,60.0,29.71,NW,315,1.8,4.7,73,0.00,,,0.00,WUHU216HW,2013-07-17 21:01:00,
2013-07-17 14:06:00,69.3,59.9,29.71,SW,225,2.5,4.7,72,0.00,,,0.00,WUHU216HW,2013-07-17 21:06:00,
2013-07-17 14:11:00,68.9,59.5,29.71,West,270,2.9,4.7,72,0.00,,,0.00,WUHU216HW,2013-07-17 21:11:00,
2013-07-17 14:16:00,68.9,59.5,29.71,NW,315,4.3,4.3,72,0.00,,,0.00,WUHU216HW,2013-07-17 21:16:00,
2013-07-17 14:21:00,68.9,59.1,29.71,SW,225,1.6,4.9,71,0.00,,,0.00,WUHU216HW,2013-07-17 21:21:00,
2013-07-17 14:26:00,69.5,59.2,29.70,SSW,203,3.4,4.9,70,0.00,,,0.00,WUHU216HW,2013-07-17 21:26:00,
2013-07-17 14:31:00,69.3,59.1,29.70,West,270,3.8,4.7,70,0.00,,,0.00,WUHU216HW,2013-07-17 21:31:00,
2013-07-17 14:36:00,69.5,59.2,29.70,WSW,248,3.6,4.7,70,0.00,,,0.00,WUHU216HW,2013-07-17 21:36:00,
2013-07-17 14:41:00,69.3,59.5,29.70,SSE,158,2.5,4.3,71,0.00,,,0.00,WUHU216HW,2013-07-17 21:41:00,
2013-07-17 14:46:00,69.5,59.7,29.70,West,270,2.9,4.7,71,0.00,,,0.00,WUHU216HW,2013-07-17 21:46:00,
2013-07-17 14:51:00,69.8,59.6,29.71,NW,315,2.5,4.9,70,0.00,,,0.00,WUHU216HW,2013-07-17 21:51:00,
2013-07-17 14:56:00,70.2,59.9,29.71,SSE,158,1.1,4.9,70,0.00,,,0.00,WUHU216HW,2013-07-17 21:56:00,
2013-07-17 15:01:00,70.2,59.5,29.71,NNW,338,3.8,4.3,69,0.00,,,0.00,WUHU216HW,2013-07-17 22:01:00,
2013-07-17 15:06:00,69.5,59.2,29.71,NNW,338,1.1,4.3,70,0.00,,,0.00,WUHU216HW,2013-07-17 22:06:00,
2013-07-17 15:11:00,69.3,59.1,29.70,SW,225,1.1,4.9,70,0.00,,,0.00,WUHU216HW,2013-07-17 22:11:00,
2013-07-17 15:16:00,69.5,59.2,29.70,NNW,338,2.9,4.9,70,0.00,,,0.00,WUHU216HW,2013-07-17 22:16:00,
2013-07-17 15:21:00,69.5,59.2,29.70,WNW,293,1.8,4.9,70,0.00,,,0.00,WUHU216HW,2013-07-17 22:21:00,
2013-07-17 15:26:00,69.8,59.1,29.70,West,270,2.7,4.9,69,0.00,,,0.00,WUHU216HW,2013-07-17 22:26:00,
2013-07-17 15:31:00,70.0,59.3,29.70,WSW,248,2.5,4.7,69,0.00,,,0.00,WUHU216HW,2013-07-17 22:31:00,
2013-07-17 15:36:00,69.5,59.2,29.69,East,90,0.9,5.4,70,0.00,,,0.00,WUHU216HW,2013-07-17 22:36:00,
2013-07-17 15:41:00,69.7,59.4,29.70,WNW,293,1.3,5.4,70,0.00,,,0.00,WUHU216HW,2013-07-17 22:41:00,
2013-07-17 15:46:00,69.5,59.2,29.69,NW,315,1.8,4.0,70,0.00,,,0.00,WUHU216HW,2013-07-17 22:46:00,
2013-07-17 15:51:00,69.8,59.6,29.69,West,270,1.1,4.0,70,0.00,,,0.00,WUHU216HW,2013-07-17 22:51:00,
2013-07-17 15:56:00,69.8,59.9,29.69,WNW,293,1.6,4.3,71,0.00,,,0.00,WUHU216HW,2013-07-17 22:56:00,
2013-07-17 16:01:00,69.8,59.9,29.68,West,270,2.2,4.5,71,0.00,,,0.00,WUHU216HW,2013-07-17 23:01:00,
2013-07-17 16:06:00,69.3,60.2,29.68,WSW,248,3.8,4.7,73,0.00,,,0.00,WUHU216HW,2013-07-17 23:06:00,
2013-07-17 16:11:00,69.1,60.0,29.68,ESE,113,1.1,5.6,73,0.00,,,0.00,WUHU216HW,2013-07-17 23:11:00,
2013-07-17 16:16:00,69.3,60.2,29.68,WNW,293,3.6,5.6,73,0.00,,,0.00,WUHU216HW,2013-07-17 23:16:00,
2013-07-17 16:21:00,69.5,60.8,29.68,WNW,293,1.3,4.9,74,0.00,,,0.00,WUHU216HW,2013-07-17 23:21:00,
2013-07-17 16:26:00,69.5,60.8,29.67,NNW,338,1.8,5.1,74,0.00,,,0.00,WUHU216HW,2013-07-17 23:26:00,
2013-07-17 16:31:00,69.1,60.9,29.67,West,270,1.3,5.1,75,0.00,,,0.00,WUHU216HW,2013-07-17 23:31:00,
2013-07-17 16:36:00,69.1,60.9,29.67,WSW,248,3.4,5.1,75,0.00,,,0.00,WUHU216HW,2013-07-17 23:36:00,
2013-07-17 16:41:00,68.8,61.3,29.67,WSW,248,2.0,4.5,77,0.00,,,0.00,WUHU216HW,2013-07-17 23:41:00,
2013-07-17 16:46:00,68.6,61.1,29.67,NNW,338,1.8,4.5,77,0.00,,,0.00,WUHU216HW,2013-07-17 23:46:00,
2013-07-17 16:51:00,68.4,60.9,29.67,WNW,293,1.8,4.0,77,0.00,,,0.00,WUHU216HW,2013-07-17 23:51:00,
2013-07-17 16:56:00,68.2,60.8,29.66,North,0,1.1,4.7,77,0.00,,,0.00,WUHU216HW,2013-07-17 23:56:00,
2013-07-17 17:01:00,68.6,61.1,29.66,West,270,3.6,4.7,77,0.00,,,0.00,WUHU216HW,2013-07-18 00:01:00,
2013-07-17 17:06:00,68.6,61.5,29.66,SW,225,2.0,4.0,78,0.00,,,0.00,WUHU216HW,2013-07-18 00:06:00,
2013-07-17 17:11:00,68.6,61.1,29.65,West,270,4.5,4.7,77,0.00,,,0.00,WUHU216HW,2013-07-18 00:11:00,
2013-07-17 17:16:00,68.2,61.1,29.66,West,270,1.8,4.7,78,0.00,,,0.00,WUHU216HW,2013-07-18 00:16:00,
2013-07-17 17:21:00,68.0,61.0,29.65,West,270,3.4,4.7,78,0.00,,,0.00,WUHU216HW,2013-07-18 00:21:00,
2013-07-17 17:26:00,68.0,61.4,29.65,NNW,338,2.2,4.7,79,0.00,,,0.00,WUHU216HW,2013-07-18 00:26:00,
2013-07-17 17:31:00,68.0,61.0,29.65,NNE,23,3.8,4.0,78,0.00,,,0.00,WUHU216HW,2013-07-18 00:31:00,
2013-07-17 17:36:00,68.2,61.1,29.65,SSW,203,3.1,3.8,78,0.00,,,0.00,WUHU216HW,2013-07-18 00:36:00,
2013-07-17 17:41:00,68.0,61.4,29.65,SW,225,1.6,4.7,79,0.00,,,0.00,WUHU216HW,2013-07-18 00:41:00,
2013-07-17 17:46:00,68.4,61.3,29.65,SSW,203,1.1,4.7,78,0.00,,,0.00,WUHU216HW,2013-07-18 00:46:00,
2013-07-17 17:51:00,68.0,60.6,29.65,WNW,293,3.8,4.0,77,0.00,,,0.00,WUHU216HW,2013-07-18 00:51:00,
2013-07-17 17:56:00,67.5,60.9,29.65,SW,225,2.0,4.0,79,0.00,,,0.00,WUHU216HW,2013-07-18 00:56:00,
2013-07-17 18:01:00,67.3,61.0,29.65,NW,315,1.8,3.8,80,0.00,,,0.00,WUHU216HW,2013-07-18 01:01:00,
2013-07-17 18:06:00,67.1,60.5,29.65,West,270,2.5,5.4,79,0.00,,,0.00,WUHU216HW,2013-07-18 01:06:00,
2013-07-17 18:11:00,66.8,60.5,29.65,NNW,338,2.0,5.4,80,0.00,,,0.00,WUHU216HW,2013-07-18 01:11:00,
2013-07-17 18:16:00,66.8,60.5,29.65,NW,315,3.8,5.1,80,0.00,,,0.00,WUHU216HW,2013-07-18 01:16:00,
2013-07-17 18:21:00,66.8,60.5,29.65,NNW,338,2.2,5.1,80,0.00,,,0.00,WUHU216HW,2013-07-18 01:21:00,
2013-07-17 18:26:00,66.8,60.5,29.65,WSW,248,2.0,3.8,80,0.00,,,0.00,WUHU216HW,2013-07-18 01:26:00,
2013-07-17 18:31:00,66.4,60.1,29.65,SSW,203,1.6,4.0,80,0.00,,,0.00,WUHU216HW,2013-07-18 01:31:00,
2013-07-17 18:36:00,66.2,59.9,29.65,North,0,2.0,4.0,80,0.00,,,0.00,WUHU216HW,2013-07-18 01:36:00,
2013-07-17 18:41:00,65.9,60.0,29.65,West,270,2.0,3.4,81,0.00,,,0.00,WUHU216HW,2013-07-18 01:41:00,
2013-07-17 18:46:00,65.9,60.0,29.65,SE,135,2.5,5.1,81,0.00,,,0.00,WUHU216HW,2013-07-18 01:46:00,
2013-07-17 18:51:00,65.7,60.0,29.65,WSW,248,2.2,5.1,82,0.00,,,0.00,WUHU216HW,2013-07-18 01:51:00,
2013-07-17 18:56:00,65.7,60.0,29.65,SW,225,2.2,3.4,82,0.00,,,0.00,WUHU216HW,2013-07-18 01:56:00,
2013-07-17 19:01:00,65.5,59.9,29.65,North,0,1.3,4.0,82,0.00,,,0.00,WUHU216HW,2013-07-18 02:01:00,
2013-07-17 19:06:00,65.3,59.7,29.64,WSW,248,1.8,4.0,82,0.00,,,0.00,WUHU216HW,2013-07-18 02:06:00,
2013-07-17 19:11:00,65.2,59.5,29.65,WNW,293,2.2,2.5,82,0.00,,,0.00,WUHU216HW,2013-07-18 02:11:00,
2013-07-17 19:16:00,65.0,59.3,29.65,NNW,338,3.8,3.8,82,0.00,,,0.00,WUHU216HW,2013-07-18 02:16:00,
2013-07-17 19:21:00,64.6,59.1,29.65,SE,135,1.8,3.8,82,0.00,,,0.00,WUHU216HW,2013-07-18 02:21:00,
2013-07-17 19:26:00,64.4,58.9,29.65,WNW,293,2.9,3.8,82,0.00,,,0.00,WUHU216HW,2013-07-18 02:26:00,
2013-07-17 19:31:00,64.3,58.7,29.65,West,270,1.1,3.1,82,0.00,,,0.00,WUHU216HW,2013-07-18 02:31:00,
2013-07-17 19:36:00,64.1,58.8,29.65,SW,225,2.5,2.9,83,0.00,,,0.00,WUHU216HW,2013-07-18 02:36:00,
2013-07-17 19:41:00,63.9,58.6,29.65,WSW,248,0.2,2.9,83,0.00,,,0.00,WUHU216HW,2013-07-18 02:41:00,
2013-07-17 19:46:00,63.7,58.4,29.65,West,270,0.7,2.9,83,0.00,,,0.00,WUHU216HW,2013-07-18 02:46:00,
2013-07-17 19:51:00,63.4,58.1,29.65,NW,315,0.4,2.5,83,0.00,,,0.00,WUHU216HW,2013-07-18 02:51:00,
2013-07-17 19:56:00,63.2,58.2,29.66,WSW,248,0.4,2.5,84,0.00,,,0.00,WUHU216HW,2013-07-18 02:56:00,
2013-07-17 20:01:00,62.8,57.9,29.66,WSW,248,0.0,1.6,84,0.00,,,0.00,WUHU216HW,2013-07-18 03:01:00,
2013-07-17 20:06:00,62.6,57.7,29.66,WSW,248,1.3,1.6,84,0.00,,,0.00,WUHU216HW,2013-07-18 03:06:00,
2013-07-17 20:12:00,62.5,57.9,29.66,NW,315,1.1,3.4,85,0.00,,,0.00,WUHU216HW,2013-07-18 03:12:00,
2013-07-17 20:17:00,62.3,57.7,29.66,WSW,248,0.9,3.4,85,0.00,,,0.00,WUHU216HW,2013-07-18 03:17:00,
2013-07-17 20:22:00,62.1,57.9,29.66,WNW,293,0.7,2.5,86,0.00,,,0.00,WUHU216HW,2013-07-18 03:22:00,
2013-07-17 20:27:00,61.9,57.7,29.66,West,270,0.7,1.1,86,0.00,,,0.00,WUHU216HW,2013-07-18 03:27:00,
2013-07-17 20:32:00,61.7,57.9,29.66,WSW,248,0.4,2.2,87,0.00,,,0.00,WUHU216HW,2013-07-18 03:32:00,
2013-07-17 20:37:00,61.6,57.7,29.67,WSW,248,0.4,2.7,87,0.00,,,0.00,WUHU216HW,2013-07-18 03:37:00,
2013-07-17 20:42:00,61.6,57.7,29.67,North,0,0.9,2.7,87,0.00,,,0.00,WUHU216HW,2013-07-18 03:42:00,
2013-07-17 20:47:00,61.6,57.3,29.67,WNW,293,3.6,3.6,86,0.00,,,0.00,WUHU216HW,2013-07-18 03:47:00,
2013-07-17 20:52:00,61.6,57.7,29.67,SW,225,0.4,3.6,87,0.00,,,0.00,WUHU216HW,2013-07-18 03:52:00,
2013-07-17 20:57:00,61.4,57.5,29.67,SW,225,0.0,3.6,87,0.00,,,0.00,WUHU216HW,2013-07-18 03:57:00,
2013-07-17 21:01:00,61.2,57.3,29.67,NW,315,0.4,1.8,87,0.00,,,0.00,WUHU216HW,2013-07-18 04:01:00,
2013-07-17 21:06:00,61.2,57.3,29.67,WNW,293,0.4,1.6,87,0.00,,,0.00,WUHU216HW,2013-07-18 04:06:00,
2013-07-17 21:11:00,61.2,57.3,29.67,WSW,248,0.2,1.6,87,0.00,,,0.00,WUHU216HW,2013-07-18 04:11:00,
2013-07-17 21:16:00,61.2,57.3,29.67,West,270,2.0,2.0,87,0.00,,,0.00,WUHU216HW,2013-07-18 04:16:00,
2013-07-17 21:21:00,61.0,57.2,29.68,WSW,248,0.2,2.0,87,0.00,,,0.00,WUHU216HW,2013-07-18 04:21:00,
2013-07-17 21:26:00,60.8,57.0,29.68,NNW,338,0.2,2.5,87,0.00,,,0.00,WUHU216HW,2013-07-18 04:26:00,
2013-07-17 21:31:00,60.8,57.0,29.68,WNW,293,0.2,2.5,87,0.00,,,0.00,WUHU216HW,2013-07-18 04:31:00,
2013-07-17 21:36:00,60.8,57.0,29.68,WSW,248,0.4,3.4,87,0.00,,,0.00,WUHU216HW,2013-07-18 04:36:00,
2013-07-17 21:41:00,60.8,57.0,29.68,West,270,1.8,3.4,87,0.00,,,0.00,WUHU216HW,2013-07-18 04:41:00,
2013-07-17 21:46:00,60.8,57.0,29.68,NW,315,0.2,1.8,87,0.00,,,0.00,WUHU216HW,2013-07-18 04:46:00,
2013-07-17 21:51:00,60.8,57.0,29.68,West,270,0.0,1.8,87,0.00,,,0.00,WUHU216HW,2013-07-18 04:51:00,
2013-07-17 21:56:00,60.8,57.0,29.68,WSW,248,0.0,1.1,87,0.00,,,0.00,WUHU216HW,2013-07-18 04:56:00,
2013-07-17 22:01:00,60.8,57.0,29.68,WSW,248,0.2,0.4,87,0.00,,,0.00,WUHU216HW,2013-07-18 05:01:00,
2013-07-17 22:06:00,60.8,57.3,29.68,SW,225,0.0,0.2,88,0.00,,,0.00,WUHU216HW,2013-07-18 05:06:00,
2013-07-17 22:11:00,60.7,57.2,29.68,WSW,248,0.0,0.2,88,0.00,,,0.00,WUHU216HW,2013-07-18 05:11:00,
2013-07-17 22:16:00,60.7,57.2,29.68,WNW,293,0.4,0.7,88,0.00,,,0.00,WUHU216HW,2013-07-18 05:16:00,
2013-07-17 22:21:00,60.7,57.2,29.68,WNW,293,0.0,0.7,88,0.00,,,0.00,WUHU216HW,2013-07-18 05:21:00,
2013-07-17 22:26:00,60.5,57.0,29.68,NNW,338,0.2,1.1,88,0.00,,,0.00,WUHU216HW,2013-07-18 05:26:00,
2013-07-17 22:31:00,60.5,57.0,29.68,West,270,0.2,1.1,88,0.00,,,0.00,WUHU216HW,2013-07-18 05:31:00,
2013-07-17 22:36:00,60.5,57.0,29.68,West,270,0.0,0.4,88,0.00,,,0.00,WUHU216HW,2013-07-18 05:36:00,
2013-07-17 22:41:00,60.5,57.0,29.68,West,270,0.0,0.4,88,0.00,,,0.00,WUHU216HW,2013-07-18 05:41:00,
2013-07-17 22:46:00,60.5,57.0,29.68,West,270,0.0,0.0,88,0.00,,,0.00,WUHU216HW,2013-07-18 05:46:00,
2013-07-17 22:51:00,60.5,56.6,29.68,West,270,0.0,0.0,87,0.00,,,0.00,WUHU216HW,2013-07-18 05:51:00,
2013-07-17 22:56:00,60.5,56.6,29.68,WSW,248,0.0,0.4,87,0.00,,,0.00,WUHU216HW,2013-07-18 05:56:00,
2013-07-17 23:01:00,60.5,57.0,29.68,WSW,248,0.0,0.4,88,0.00,,,0.00,WUHU216HW,2013-07-18 06:01:00,
2013-07-17 23:06:00,60.3,56.4,29.68,WSW,248,0.0,0.4,87,0.00,,,0.00,WUHU216HW,2013-07-18 06:06:00,
2013-07-17 23:11:00,60.3,56.4,29.68,WSW,248,0.0,0.4,87,0.00,,,0.00,WUHU216HW,2013-07-18 06:11:00,
2013-07-17 23:16:00,60.5,56.6,29.68,WSW,248,0.0,0.0,87,0.00,,,0.00,WUHU216HW,2013-07-18 06:16:00,
2013-07-17 23:21:00,60.3,56.4,29.68,WSW,248,0.0,0.0,87,0.00,,,0.00,WUHU216HW,2013-07-18 06:21:00,
2013-07-17 23:26:00,60.3,56.4,29.68,WSW,248,0.0,0.0,87,0.00,,,0.00,WUHU216HW,2013-07-18 06:26:00,
2013-07-17 23:31:00,60.3,56.4,29.68,North,0,0.0,0.4,87,0.00,,,0.00,WUHU216HW,2013-07-18 06:31:00,
2013-07-17 23:36:00,60.1,56.3,29.68,North,0,0.0,0.4,87,0.00,,,0.00,WUHU216HW,2013-07-18 06:36:00,
2013-07-17 23:41:00,60.1,56.3,29.68,North,0,0.0,0.0,87,0.00,,,0.00,WUHU216HW,2013-07-18 06:41:00,
2013-07-17 23:46:00,60.1,56.3,29.68,North,0,0.0,0.0,87,0.00,,,0.00,WUHU216HW,2013-07-18 06:46:00,
2013-07-17 23:51:00,59.9,56.1,29.68,NW,315,0.0,0.0,87,0.00,,,0.00,WUHU216HW,2013-07-18 06:51:00,
2013-07-17 23:56:00,59.9,56.1,29.67,NW,315,0.0,0.0,87,0.00,,,0.00,WUHU216HW,2013-07-18 06:56:00,